<?xml version="1.0" encoding="UTF-8" standalone="no" ?>
<gpx xmlns="http://www.topografix.com/GPX/1/1" xmlns:xsi="http://www.w3.org/2001/XMLSchema-instance" xsi:schemaLocation="http://www.topografix.com/GPX/1/1 http://www.topografix.com/GPX/1/1/gpx.xsd" version="1.1" creator="VisuGPX - https://www.visugpx.com">
  <metadata>
    <name>83-S-Trans</name>
    <desc><![CDATA[83-S-Trans : décathlon]]></desc>
  </metadata>
  <trk>
    <name><![CDATA[2015-03-28-S-deca]]></name>
    <trkseg>
      <trkpt lat="43.50451" lon="6.48303">
        <ele>150.4</ele>
        <time>2015-03-28T12:52:06Z</time>
      </trkpt>
      <trkpt lat="43.5045" lon="6.48315">
        <ele>141.6</ele>
        <time>2015-03-28T13:08:06Z</time>
      </trkpt>
      <trkpt lat="43.50449" lon="6.48316">
        <ele>141.4</ele>
        <time>2015-03-28T13:08:07Z</time>
      </trkpt>
      <trkpt lat="43.50438" lon="6.48331">
        <ele>142.4</ele>
        <time>2015-03-28T13:09:05Z</time>
      </trkpt>
      <trkpt lat="43.50431" lon="6.48338">
        <ele>142.8</ele>
        <time>2015-03-28T13:09:19Z</time>
      </trkpt>
      <trkpt lat="43.5043" lon="6.48339">
        <ele>142.2</ele>
        <time>2015-03-28T13:09:20Z</time>
      </trkpt>
      <trkpt lat="43.50414" lon="6.48335">
        <ele>142.1</ele>
        <time>2015-03-28T13:10:05Z</time>
      </trkpt>
      <trkpt lat="43.50405" lon="6.48333">
        <ele>143.2</ele>
        <time>2015-03-28T13:10:12Z</time>
      </trkpt>
      <trkpt lat="43.50398" lon="6.48329">
        <ele>144.2</ele>
        <time>2015-03-28T13:12:27Z</time>
      </trkpt>
      <trkpt lat="43.50397" lon="6.48327">
        <ele>144.4</ele>
        <time>2015-03-28T13:12:28Z</time>
      </trkpt>
      <trkpt lat="43.50391" lon="6.48308">
        <ele>144.3</ele>
        <time>2015-03-28T13:12:45Z</time>
      </trkpt>
      <trkpt lat="43.50383" lon="6.48306">
        <ele>144.4</ele>
        <time>2015-03-28T13:12:53Z</time>
      </trkpt>
      <trkpt lat="43.50374" lon="6.48309">
        <ele>144.8</ele>
        <time>2015-03-28T13:13:00Z</time>
      </trkpt>
      <trkpt lat="43.50367" lon="6.48315">
        <ele>142.8</ele>
        <time>2015-03-28T13:13:07Z</time>
      </trkpt>
      <trkpt lat="43.50359" lon="6.48321">
        <ele>144.4</ele>
        <time>2015-03-28T13:13:13Z</time>
      </trkpt>
      <trkpt lat="43.50352" lon="6.48326">
        <ele>142.2</ele>
        <time>2015-03-28T13:13:20Z</time>
      </trkpt>
      <trkpt lat="43.50344" lon="6.48331">
        <ele>144</ele>
        <time>2015-03-28T13:13:28Z</time>
      </trkpt>
      <trkpt lat="43.50343" lon="6.48331">
        <ele>144.3</ele>
        <time>2015-03-28T13:13:29Z</time>
      </trkpt>
      <trkpt lat="43.50328" lon="6.48336">
        <ele>143.5</ele>
        <time>2015-03-28T13:13:44Z</time>
      </trkpt>
      <trkpt lat="43.50319" lon="6.48339">
        <ele>144.7</ele>
        <time>2015-03-28T13:13:52Z</time>
      </trkpt>
      <trkpt lat="43.50311" lon="6.48343">
        <ele>145.5</ele>
        <time>2015-03-28T13:14:00Z</time>
      </trkpt>
      <trkpt lat="43.50303" lon="6.48347">
        <ele>145.9</ele>
        <time>2015-03-28T13:14:09Z</time>
      </trkpt>
      <trkpt lat="43.50295" lon="6.48352">
        <ele>144.8</ele>
        <time>2015-03-28T13:14:17Z</time>
      </trkpt>
      <trkpt lat="43.50288" lon="6.48358">
        <ele>145.3</ele>
        <time>2015-03-28T13:14:25Z</time>
      </trkpt>
      <trkpt lat="43.5028" lon="6.48362">
        <ele>147.3</ele>
        <time>2015-03-28T13:14:34Z</time>
      </trkpt>
      <trkpt lat="43.50279" lon="6.48363">
        <ele>147.7</ele>
        <time>2015-03-28T13:14:35Z</time>
      </trkpt>
      <trkpt lat="43.50264" lon="6.4836">
        <ele>148.3</ele>
        <time>2015-03-28T13:14:49Z</time>
      </trkpt>
      <trkpt lat="43.50258" lon="6.48352">
        <ele>151.1</ele>
        <time>2015-03-28T13:14:59Z</time>
      </trkpt>
      <trkpt lat="43.50253" lon="6.48342">
        <ele>151.8</ele>
        <time>2015-03-28T13:15:10Z</time>
      </trkpt>
      <trkpt lat="43.5025" lon="6.48332">
        <ele>154.4</ele>
        <time>2015-03-28T13:15:20Z</time>
      </trkpt>
      <trkpt lat="43.50246" lon="6.48321">
        <ele>156.7</ele>
        <time>2015-03-28T13:15:29Z</time>
      </trkpt>
      <trkpt lat="43.50244" lon="6.48309">
        <ele>157.3</ele>
        <time>2015-03-28T13:15:37Z</time>
      </trkpt>
      <trkpt lat="43.50244" lon="6.48308">
        <ele>157.7</ele>
        <time>2015-03-28T13:15:38Z</time>
      </trkpt>
      <trkpt lat="43.50243" lon="6.48286">
        <ele>158.7</ele>
        <time>2015-03-28T13:15:55Z</time>
      </trkpt>
      <trkpt lat="43.50239" lon="6.48276">
        <ele>159.9</ele>
        <time>2015-03-28T13:16:03Z</time>
      </trkpt>
      <trkpt lat="43.50238" lon="6.48264">
        <ele>161.1</ele>
        <time>2015-03-28T13:16:12Z</time>
      </trkpt>
      <trkpt lat="43.50239" lon="6.48253">
        <ele>162.6</ele>
        <time>2015-03-28T13:16:22Z</time>
      </trkpt>
      <trkpt lat="43.50239" lon="6.4824">
        <ele>164.5</ele>
        <time>2015-03-28T13:16:31Z</time>
      </trkpt>
      <trkpt lat="43.50239" lon="6.48229">
        <ele>165</ele>
        <time>2015-03-28T13:16:39Z</time>
      </trkpt>
      <trkpt lat="43.50239" lon="6.48227">
        <ele>165.1</ele>
        <time>2015-03-28T13:16:40Z</time>
      </trkpt>
      <trkpt lat="43.50232" lon="6.48207">
        <ele>166.6</ele>
        <time>2015-03-28T13:17:10Z</time>
      </trkpt>
      <trkpt lat="43.50233" lon="6.48195">
        <ele>168.3</ele>
        <time>2015-03-28T13:22:27Z</time>
      </trkpt>
      <trkpt lat="43.50233" lon="6.48195">
        <ele>168.4</ele>
        <time>2015-03-28T13:22:28Z</time>
      </trkpt>
      <trkpt lat="43.50225" lon="6.48174">
        <ele>169.6</ele>
        <time>2015-03-28T13:22:57Z</time>
      </trkpt>
      <trkpt lat="43.50218" lon="6.48167">
        <ele>170.8</ele>
        <time>2015-03-28T13:23:06Z</time>
      </trkpt>
      <trkpt lat="43.50211" lon="6.48161">
        <ele>170.1</ele>
        <time>2015-03-28T13:23:14Z</time>
      </trkpt>
      <trkpt lat="43.50204" lon="6.48155">
        <ele>169.8</ele>
        <time>2015-03-28T13:23:23Z</time>
      </trkpt>
      <trkpt lat="43.50196" lon="6.48151">
        <ele>169</ele>
        <time>2015-03-28T13:23:31Z</time>
      </trkpt>
      <trkpt lat="43.50195" lon="6.4815">
        <ele>168.6</ele>
        <time>2015-03-28T13:23:32Z</time>
      </trkpt>
      <trkpt lat="43.5018" lon="6.48141">
        <ele>166.2</ele>
        <time>2015-03-28T13:23:47Z</time>
      </trkpt>
      <trkpt lat="43.50172" lon="6.48136">
        <ele>162</ele>
        <time>2015-03-28T13:23:57Z</time>
      </trkpt>
      <trkpt lat="43.50164" lon="6.48132">
        <ele>161.9</ele>
        <time>2015-03-28T13:24:05Z</time>
      </trkpt>
      <trkpt lat="43.50156" lon="6.4813">
        <ele>160.5</ele>
        <time>2015-03-28T13:24:11Z</time>
      </trkpt>
      <trkpt lat="43.50148" lon="6.48124">
        <ele>158.7</ele>
        <time>2015-03-28T13:24:19Z</time>
      </trkpt>
      <trkpt lat="43.50142" lon="6.48119">
        <ele>157.9</ele>
        <time>2015-03-28T13:24:29Z</time>
      </trkpt>
      <trkpt lat="43.50134" lon="6.48113">
        <ele>156.9</ele>
        <time>2015-03-28T13:24:36Z</time>
      </trkpt>
      <trkpt lat="43.50134" lon="6.48112">
        <ele>156.5</ele>
        <time>2015-03-28T13:24:37Z</time>
      </trkpt>
      <trkpt lat="43.5012" lon="6.481">
        <ele>156</ele>
        <time>2015-03-28T13:24:55Z</time>
      </trkpt>
      <trkpt lat="43.50113" lon="6.48094">
        <ele>154.7</ele>
        <time>2015-03-28T13:25:01Z</time>
      </trkpt>
      <trkpt lat="43.50108" lon="6.48087">
        <ele>155.3</ele>
        <time>2015-03-28T13:25:07Z</time>
      </trkpt>
      <trkpt lat="43.50102" lon="6.48079">
        <ele>155.3</ele>
        <time>2015-03-28T13:25:13Z</time>
      </trkpt>
      <trkpt lat="43.50095" lon="6.48072">
        <ele>156.5</ele>
        <time>2015-03-28T13:25:20Z</time>
      </trkpt>
      <trkpt lat="43.50088" lon="6.48065">
        <ele>158.4</ele>
        <time>2015-03-28T13:25:29Z</time>
      </trkpt>
      <trkpt lat="43.5008" lon="6.48059">
        <ele>158.8</ele>
        <time>2015-03-28T13:25:38Z</time>
      </trkpt>
      <trkpt lat="43.50079" lon="6.48058">
        <ele>159.6</ele>
        <time>2015-03-28T13:25:39Z</time>
      </trkpt>
      <trkpt lat="43.50065" lon="6.48051">
        <ele>161.5</ele>
        <time>2015-03-28T13:25:52Z</time>
      </trkpt>
      <trkpt lat="43.50058" lon="6.48046">
        <ele>162.8</ele>
        <time>2015-03-28T13:26:00Z</time>
      </trkpt>
      <trkpt lat="43.50051" lon="6.48038">
        <ele>165.3</ele>
        <time>2015-03-28T13:26:12Z</time>
      </trkpt>
      <trkpt lat="43.50043" lon="6.48038">
        <ele>167.5</ele>
        <time>2015-03-28T13:26:23Z</time>
      </trkpt>
      <trkpt lat="43.50034" lon="6.48037">
        <ele>171</ele>
        <time>2015-03-28T13:26:33Z</time>
      </trkpt>
      <trkpt lat="43.50026" lon="6.48032">
        <ele>171.8</ele>
        <time>2015-03-28T13:26:43Z</time>
      </trkpt>
      <trkpt lat="43.50025" lon="6.48031">
        <ele>172.1</ele>
        <time>2015-03-28T13:26:44Z</time>
      </trkpt>
      <trkpt lat="43.50014" lon="6.48016">
        <ele>175.9</ele>
        <time>2015-03-28T13:27:02Z</time>
      </trkpt>
      <trkpt lat="43.5001" lon="6.48007">
        <ele>177.5</ele>
        <time>2015-03-28T13:27:13Z</time>
      </trkpt>
      <trkpt lat="43.50008" lon="6.47995">
        <ele>179.1</ele>
        <time>2015-03-28T13:27:38Z</time>
      </trkpt>
      <trkpt lat="43.50003" lon="6.47985">
        <ele>180.1</ele>
        <time>2015-03-28T13:27:57Z</time>
      </trkpt>
      <trkpt lat="43.50003" lon="6.47984">
        <ele>180.2</ele>
        <time>2015-03-28T13:27:58Z</time>
      </trkpt>
      <trkpt lat="43.49993" lon="6.47967">
        <ele>182.1</ele>
        <time>2015-03-28T13:28:15Z</time>
      </trkpt>
      <trkpt lat="43.49987" lon="6.47957">
        <ele>185</ele>
        <time>2015-03-28T13:28:31Z</time>
      </trkpt>
      <trkpt lat="43.49981" lon="6.47949">
        <ele>184.5</ele>
        <time>2015-03-28T13:30:44Z</time>
      </trkpt>
      <trkpt lat="43.49981" lon="6.47948">
        <ele>184.5</ele>
        <time>2015-03-28T13:30:45Z</time>
      </trkpt>
      <trkpt lat="43.49965" lon="6.47943">
        <ele>188.7</ele>
        <time>2015-03-28T13:31:10Z</time>
      </trkpt>
      <trkpt lat="43.49957" lon="6.47938">
        <ele>192</ele>
        <time>2015-03-28T13:31:26Z</time>
      </trkpt>
      <trkpt lat="43.4995" lon="6.47933">
        <ele>194.7</ele>
        <time>2015-03-28T13:31:44Z</time>
      </trkpt>
      <trkpt lat="43.49942" lon="6.47926">
        <ele>196.5</ele>
        <time>2015-03-28T13:31:58Z</time>
      </trkpt>
      <trkpt lat="43.49942" lon="6.47925">
        <ele>196.6</ele>
        <time>2015-03-28T13:31:59Z</time>
      </trkpt>
      <trkpt lat="43.49929" lon="6.4791">
        <ele>200.3</ele>
        <time>2015-03-28T13:32:24Z</time>
      </trkpt>
      <trkpt lat="43.49922" lon="6.47904">
        <ele>203</ele>
        <time>2015-03-28T13:32:38Z</time>
      </trkpt>
      <trkpt lat="43.49916" lon="6.47895">
        <ele>206.4</ele>
        <time>2015-03-28T13:32:53Z</time>
      </trkpt>
      <trkpt lat="43.49909" lon="6.47889">
        <ele>208.1</ele>
        <time>2015-03-28T13:33:06Z</time>
      </trkpt>
      <trkpt lat="43.49908" lon="6.47888">
        <ele>208.2</ele>
        <time>2015-03-28T13:33:07Z</time>
      </trkpt>
      <trkpt lat="43.49895" lon="6.47876">
        <ele>211.9</ele>
        <time>2015-03-28T13:33:26Z</time>
      </trkpt>
      <trkpt lat="43.4989" lon="6.47865">
        <ele>211.9</ele>
        <time>2015-03-28T13:33:38Z</time>
      </trkpt>
      <trkpt lat="43.49885" lon="6.47855">
        <ele>213</ele>
        <time>2015-03-28T13:33:52Z</time>
      </trkpt>
      <trkpt lat="43.49877" lon="6.47849">
        <ele>213</ele>
        <time>2015-03-28T13:34:01Z</time>
      </trkpt>
      <trkpt lat="43.4987" lon="6.47844">
        <ele>213.9</ele>
        <time>2015-03-28T13:34:10Z</time>
      </trkpt>
      <trkpt lat="43.49869" lon="6.47844">
        <ele>213.3</ele>
        <time>2015-03-28T13:34:11Z</time>
      </trkpt>
      <trkpt lat="43.49855" lon="6.47835">
        <ele>214.1</ele>
        <time>2015-03-28T13:34:29Z</time>
      </trkpt>
      <trkpt lat="43.49847" lon="6.47829">
        <ele>215.3</ele>
        <time>2015-03-28T13:34:38Z</time>
      </trkpt>
      <trkpt lat="43.49844" lon="6.47819">
        <ele>213.5</ele>
        <time>2015-03-28T13:34:50Z</time>
      </trkpt>
      <trkpt lat="43.49843" lon="6.47807">
        <ele>214.5</ele>
        <time>2015-03-28T13:35:01Z</time>
      </trkpt>
      <trkpt lat="43.49841" lon="6.47795">
        <ele>212.1</ele>
        <time>2015-03-28T13:35:18Z</time>
      </trkpt>
      <trkpt lat="43.4984" lon="6.47794">
        <ele>212.2</ele>
        <time>2015-03-28T13:35:19Z</time>
      </trkpt>
      <trkpt lat="43.49839" lon="6.47772">
        <ele>209.3</ele>
        <time>2015-03-28T13:35:36Z</time>
      </trkpt>
      <trkpt lat="43.4984" lon="6.4776">
        <ele>207.7</ele>
        <time>2015-03-28T13:35:44Z</time>
      </trkpt>
      <trkpt lat="43.49838" lon="6.47748">
        <ele>205.8</ele>
        <time>2015-03-28T13:35:55Z</time>
      </trkpt>
      <trkpt lat="43.49837" lon="6.47737">
        <ele>205</ele>
        <time>2015-03-28T13:36:16Z</time>
      </trkpt>
      <trkpt lat="43.4984" lon="6.47725">
        <ele>203.5</ele>
        <time>2015-03-28T13:36:26Z</time>
      </trkpt>
      <trkpt lat="43.4984" lon="6.47724">
        <ele>203.2</ele>
        <time>2015-03-28T13:36:27Z</time>
      </trkpt>
      <trkpt lat="43.49842" lon="6.47701">
        <ele>199.2</ele>
        <time>2015-03-28T13:36:45Z</time>
      </trkpt>
      <trkpt lat="43.49842" lon="6.4769">
        <ele>199</ele>
        <time>2015-03-28T13:36:53Z</time>
      </trkpt>
      <trkpt lat="43.49843" lon="6.47679">
        <ele>198</ele>
        <time>2015-03-28T13:37:00Z</time>
      </trkpt>
      <trkpt lat="43.49843" lon="6.47667">
        <ele>196</ele>
        <time>2015-03-28T13:37:08Z</time>
      </trkpt>
      <trkpt lat="43.49843" lon="6.47655">
        <ele>193.8</ele>
        <time>2015-03-28T13:37:17Z</time>
      </trkpt>
      <trkpt lat="43.49836" lon="6.47647">
        <ele>192.8</ele>
        <time>2015-03-28T13:37:24Z</time>
      </trkpt>
      <trkpt lat="43.49829" lon="6.47639">
        <ele>191.9</ele>
        <time>2015-03-28T13:37:37Z</time>
      </trkpt>
      <trkpt lat="43.49829" lon="6.47639">
        <ele>191.9</ele>
        <time>2015-03-28T13:37:38Z</time>
      </trkpt>
      <trkpt lat="43.49813" lon="6.47632">
        <ele>190.4</ele>
        <time>2015-03-28T13:38:03Z</time>
      </trkpt>
      <trkpt lat="43.49806" lon="6.47626">
        <ele>189.6</ele>
        <time>2015-03-28T13:38:14Z</time>
      </trkpt>
      <trkpt lat="43.49798" lon="6.47622">
        <ele>187.3</ele>
        <time>2015-03-28T13:38:22Z</time>
      </trkpt>
      <trkpt lat="43.4979" lon="6.47618">
        <ele>187.3</ele>
        <time>2015-03-28T13:38:31Z</time>
      </trkpt>
      <trkpt lat="43.49784" lon="6.4761">
        <ele>187.3</ele>
        <time>2015-03-28T13:38:38Z</time>
      </trkpt>
      <trkpt lat="43.49783" lon="6.47608">
        <ele>187.3</ele>
        <time>2015-03-28T13:38:39Z</time>
      </trkpt>
      <trkpt lat="43.49782" lon="6.47586">
        <ele>185.4</ele>
        <time>2015-03-28T13:38:58Z</time>
      </trkpt>
      <trkpt lat="43.49783" lon="6.47574">
        <ele>184.7</ele>
        <time>2015-03-28T13:39:08Z</time>
      </trkpt>
      <trkpt lat="43.49784" lon="6.47562">
        <ele>184.3</ele>
        <time>2015-03-28T13:39:16Z</time>
      </trkpt>
      <trkpt lat="43.49786" lon="6.47551">
        <ele>182.5</ele>
        <time>2015-03-28T13:39:24Z</time>
      </trkpt>
      <trkpt lat="43.49785" lon="6.4754">
        <ele>181.5</ele>
        <time>2015-03-28T13:39:33Z</time>
      </trkpt>
      <trkpt lat="43.49784" lon="6.47528">
        <ele>181.4</ele>
        <time>2015-03-28T13:40:05Z</time>
      </trkpt>
      <trkpt lat="43.49784" lon="6.47527">
        <ele>181.1</ele>
        <time>2015-03-28T13:40:06Z</time>
      </trkpt>
      <trkpt lat="43.49775" lon="6.47508">
        <ele>179.3</ele>
        <time>2015-03-28T13:40:31Z</time>
      </trkpt>
      <trkpt lat="43.4977" lon="6.47499">
        <ele>178.9</ele>
        <time>2015-03-28T13:40:45Z</time>
      </trkpt>
      <trkpt lat="43.49762" lon="6.47493">
        <ele>179.5</ele>
        <time>2015-03-28T13:42:23Z</time>
      </trkpt>
      <trkpt lat="43.49761" lon="6.47494">
        <ele>179.5</ele>
        <time>2015-03-28T13:42:24Z</time>
      </trkpt>
      <trkpt lat="43.49747" lon="6.47503">
        <ele>177.4</ele>
        <time>2015-03-28T13:42:42Z</time>
      </trkpt>
      <trkpt lat="43.49739" lon="6.47507">
        <ele>177.2</ele>
        <time>2015-03-28T13:42:51Z</time>
      </trkpt>
      <trkpt lat="43.4973" lon="6.4751">
        <ele>177.3</ele>
        <time>2015-03-28T13:43:04Z</time>
      </trkpt>
      <trkpt lat="43.49722" lon="6.47506">
        <ele>176.9</ele>
        <time>2015-03-28T13:43:12Z</time>
      </trkpt>
      <trkpt lat="43.49714" lon="6.47501">
        <ele>177.6</ele>
        <time>2015-03-28T13:43:20Z</time>
      </trkpt>
      <trkpt lat="43.49706" lon="6.47497">
        <ele>177</ele>
        <time>2015-03-28T13:43:27Z</time>
      </trkpt>
      <trkpt lat="43.49705" lon="6.47497">
        <ele>177.1</ele>
        <time>2015-03-28T13:43:28Z</time>
      </trkpt>
      <trkpt lat="43.49693" lon="6.47484">
        <ele>176.7</ele>
        <time>2015-03-28T13:43:44Z</time>
      </trkpt>
      <trkpt lat="43.49687" lon="6.47477">
        <ele>176.8</ele>
        <time>2015-03-28T13:43:51Z</time>
      </trkpt>
      <trkpt lat="43.4968" lon="6.47472">
        <ele>177.2</ele>
        <time>2015-03-28T13:43:57Z</time>
      </trkpt>
      <trkpt lat="43.49672" lon="6.47465">
        <ele>178.1</ele>
        <time>2015-03-28T13:44:06Z</time>
      </trkpt>
      <trkpt lat="43.49666" lon="6.47458">
        <ele>176.6</ele>
        <time>2015-03-28T13:44:13Z</time>
      </trkpt>
      <trkpt lat="43.4966" lon="6.47452">
        <ele>177.1</ele>
        <time>2015-03-28T13:44:19Z</time>
      </trkpt>
      <trkpt lat="43.49653" lon="6.47445">
        <ele>177.4</ele>
        <time>2015-03-28T13:44:26Z</time>
      </trkpt>
      <trkpt lat="43.49646" lon="6.47438">
        <ele>176.8</ele>
        <time>2015-03-28T13:44:33Z</time>
      </trkpt>
      <trkpt lat="43.49645" lon="6.47437">
        <ele>176.9</ele>
        <time>2015-03-28T13:44:34Z</time>
      </trkpt>
      <trkpt lat="43.49631" lon="6.47426">
        <ele>177.3</ele>
        <time>2015-03-28T13:44:49Z</time>
      </trkpt>
      <trkpt lat="43.49624" lon="6.4742">
        <ele>176.1</ele>
        <time>2015-03-28T13:44:56Z</time>
      </trkpt>
      <trkpt lat="43.49617" lon="6.47415">
        <ele>176.6</ele>
        <time>2015-03-28T13:45:02Z</time>
      </trkpt>
      <trkpt lat="43.4961" lon="6.47408">
        <ele>176.9</ele>
        <time>2015-03-28T13:45:10Z</time>
      </trkpt>
      <trkpt lat="43.49602" lon="6.47408">
        <ele>176.4</ele>
        <time>2015-03-28T13:45:21Z</time>
      </trkpt>
      <trkpt lat="43.49593" lon="6.47409">
        <ele>175.8</ele>
        <time>2015-03-28T13:45:29Z</time>
      </trkpt>
      <trkpt lat="43.49585" lon="6.47409">
        <ele>176.2</ele>
        <time>2015-03-28T13:45:37Z</time>
      </trkpt>
      <trkpt lat="43.49584" lon="6.47409">
        <ele>175.3</ele>
        <time>2015-03-28T13:45:38Z</time>
      </trkpt>
      <trkpt lat="43.49568" lon="6.47414">
        <ele>176</ele>
        <time>2015-03-28T13:45:53Z</time>
      </trkpt>
      <trkpt lat="43.49561" lon="6.47417">
        <ele>175.2</ele>
        <time>2015-03-28T13:45:59Z</time>
      </trkpt>
      <trkpt lat="43.49553" lon="6.47421">
        <ele>175.4</ele>
        <time>2015-03-28T13:46:04Z</time>
      </trkpt>
      <trkpt lat="43.49545" lon="6.47426">
        <ele>175.3</ele>
        <time>2015-03-28T13:46:10Z</time>
      </trkpt>
      <trkpt lat="43.49538" lon="6.4743">
        <ele>175.4</ele>
        <time>2015-03-28T13:46:17Z</time>
      </trkpt>
      <trkpt lat="43.4953" lon="6.47433">
        <ele>175.6</ele>
        <time>2015-03-28T13:46:25Z</time>
      </trkpt>
      <trkpt lat="43.49522" lon="6.47438">
        <ele>175.2</ele>
        <time>2015-03-28T13:46:33Z</time>
      </trkpt>
      <trkpt lat="43.49515" lon="6.47441">
        <ele>176.4</ele>
        <time>2015-03-28T13:46:39Z</time>
      </trkpt>
      <trkpt lat="43.49513" lon="6.47442">
        <ele>176.3</ele>
        <time>2015-03-28T13:46:40Z</time>
      </trkpt>
      <trkpt lat="43.49498" lon="6.47446">
        <ele>175.1</ele>
        <time>2015-03-28T13:46:52Z</time>
      </trkpt>
      <trkpt lat="43.4949" lon="6.47449">
        <ele>174.7</ele>
        <time>2015-03-28T13:46:59Z</time>
      </trkpt>
      <trkpt lat="43.49483" lon="6.47452">
        <ele>175</ele>
        <time>2015-03-28T13:47:05Z</time>
      </trkpt>
      <trkpt lat="43.49475" lon="6.47455">
        <ele>175.3</ele>
        <time>2015-03-28T13:47:11Z</time>
      </trkpt>
      <trkpt lat="43.49467" lon="6.47459">
        <ele>174.6</ele>
        <time>2015-03-28T13:47:19Z</time>
      </trkpt>
      <trkpt lat="43.49459" lon="6.47463">
        <ele>174.4</ele>
        <time>2015-03-28T13:47:25Z</time>
      </trkpt>
      <trkpt lat="43.49452" lon="6.47468">
        <ele>174.7</ele>
        <time>2015-03-28T13:47:32Z</time>
      </trkpt>
      <trkpt lat="43.49444" lon="6.47474">
        <ele>174.8</ele>
        <time>2015-03-28T13:47:43Z</time>
      </trkpt>
      <trkpt lat="43.49443" lon="6.47475">
        <ele>174.2</ele>
        <time>2015-03-28T13:47:44Z</time>
      </trkpt>
      <trkpt lat="43.49428" lon="6.4748">
        <ele>174.9</ele>
        <time>2015-03-28T13:48:47Z</time>
      </trkpt>
      <trkpt lat="43.49428" lon="6.4748">
        <ele>174.8</ele>
        <time>2015-03-28T13:48:49Z</time>
      </trkpt>
      <trkpt lat="43.4943" lon="6.47477">
        <ele>176.5</ele>
        <time>2015-03-28T13:50:17Z</time>
      </trkpt>
      <trkpt lat="43.49429" lon="6.47476">
        <ele>176.9</ele>
        <time>2015-03-28T13:50:18Z</time>
      </trkpt>
      <trkpt lat="43.49418" lon="6.4746">
        <ele>178.1</ele>
        <time>2015-03-28T13:50:36Z</time>
      </trkpt>
      <trkpt lat="43.49411" lon="6.47454">
        <ele>178.2</ele>
        <time>2015-03-28T13:50:44Z</time>
      </trkpt>
      <trkpt lat="43.49404" lon="6.47446">
        <ele>179.1</ele>
        <time>2015-03-28T13:50:53Z</time>
      </trkpt>
      <trkpt lat="43.49398" lon="6.47439">
        <ele>179</ele>
        <time>2015-03-28T13:51:01Z</time>
      </trkpt>
      <trkpt lat="43.49392" lon="6.4743">
        <ele>179.2</ele>
        <time>2015-03-28T13:51:08Z</time>
      </trkpt>
      <trkpt lat="43.49386" lon="6.47421">
        <ele>179.5</ele>
        <time>2015-03-28T13:51:15Z</time>
      </trkpt>
      <trkpt lat="43.49381" lon="6.47411">
        <ele>179.3</ele>
        <time>2015-03-28T13:51:23Z</time>
      </trkpt>
      <trkpt lat="43.49381" lon="6.4741">
        <ele>179.4</ele>
        <time>2015-03-28T13:51:24Z</time>
      </trkpt>
      <trkpt lat="43.4937" lon="6.47395">
        <ele>179.4</ele>
        <time>2015-03-28T13:51:39Z</time>
      </trkpt>
      <trkpt lat="43.49363" lon="6.47387">
        <ele>180.2</ele>
        <time>2015-03-28T13:51:45Z</time>
      </trkpt>
      <trkpt lat="43.49357" lon="6.47379">
        <ele>179.7</ele>
        <time>2015-03-28T13:51:53Z</time>
      </trkpt>
      <trkpt lat="43.4935" lon="6.47371">
        <ele>180.1</ele>
        <time>2015-03-28T13:52:01Z</time>
      </trkpt>
      <trkpt lat="43.49344" lon="6.47365">
        <ele>181.9</ele>
        <time>2015-03-28T13:52:09Z</time>
      </trkpt>
      <trkpt lat="43.49338" lon="6.47358">
        <ele>182.8</ele>
        <time>2015-03-28T13:52:16Z</time>
      </trkpt>
      <trkpt lat="43.49331" lon="6.4735">
        <ele>183.4</ele>
        <time>2015-03-28T13:52:24Z</time>
      </trkpt>
      <trkpt lat="43.4933" lon="6.47349">
        <ele>183.6</ele>
        <time>2015-03-28T13:52:25Z</time>
      </trkpt>
      <trkpt lat="43.49317" lon="6.47339">
        <ele>184.2</ele>
        <time>2015-03-28T13:52:38Z</time>
      </trkpt>
      <trkpt lat="43.49309" lon="6.47335">
        <ele>183.2</ele>
        <time>2015-03-28T13:52:44Z</time>
      </trkpt>
      <trkpt lat="43.49302" lon="6.47329">
        <ele>184</ele>
        <time>2015-03-28T13:52:51Z</time>
      </trkpt>
      <trkpt lat="43.49296" lon="6.47323">
        <ele>186</ele>
        <time>2015-03-28T13:52:58Z</time>
      </trkpt>
      <trkpt lat="43.4929" lon="6.47314">
        <ele>185.9</ele>
        <time>2015-03-28T13:53:06Z</time>
      </trkpt>
      <trkpt lat="43.49285" lon="6.47305">
        <ele>185.7</ele>
        <time>2015-03-28T13:53:13Z</time>
      </trkpt>
      <trkpt lat="43.49279" lon="6.47296">
        <ele>185.3</ele>
        <time>2015-03-28T13:53:21Z</time>
      </trkpt>
      <trkpt lat="43.49275" lon="6.47285">
        <ele>185.8</ele>
        <time>2015-03-28T13:53:30Z</time>
      </trkpt>
      <trkpt lat="43.49275" lon="6.47284">
        <ele>185.7</ele>
        <time>2015-03-28T13:53:31Z</time>
      </trkpt>
      <trkpt lat="43.49267" lon="6.47265">
        <ele>185.3</ele>
        <time>2015-03-28T13:53:47Z</time>
      </trkpt>
      <trkpt lat="43.49264" lon="6.47254">
        <ele>185.3</ele>
        <time>2015-03-28T13:53:55Z</time>
      </trkpt>
      <trkpt lat="43.49261" lon="6.47244">
        <ele>184.3</ele>
        <time>2015-03-28T13:54:02Z</time>
      </trkpt>
      <trkpt lat="43.49257" lon="6.47234">
        <ele>183.6</ele>
        <time>2015-03-28T13:54:09Z</time>
      </trkpt>
      <trkpt lat="43.49253" lon="6.47224">
        <ele>181.8</ele>
        <time>2015-03-28T13:54:17Z</time>
      </trkpt>
      <trkpt lat="43.49249" lon="6.47213">
        <ele>180.5</ele>
        <time>2015-03-28T13:54:27Z</time>
      </trkpt>
      <trkpt lat="43.49244" lon="6.47204">
        <ele>179.9</ele>
        <time>2015-03-28T13:54:34Z</time>
      </trkpt>
      <trkpt lat="43.49243" lon="6.47203">
        <ele>179.8</ele>
        <time>2015-03-28T13:54:35Z</time>
      </trkpt>
      <trkpt lat="43.49234" lon="6.47185">
        <ele>178.7</ele>
        <time>2015-03-28T13:54:52Z</time>
      </trkpt>
      <trkpt lat="43.49228" lon="6.47176">
        <ele>177.9</ele>
        <time>2015-03-28T13:55:00Z</time>
      </trkpt>
      <trkpt lat="43.49223" lon="6.47166">
        <ele>177.4</ele>
        <time>2015-03-28T13:55:10Z</time>
      </trkpt>
      <trkpt lat="43.49218" lon="6.47157">
        <ele>176.1</ele>
        <time>2015-03-28T13:55:17Z</time>
      </trkpt>
      <trkpt lat="43.49212" lon="6.47148">
        <ele>176.4</ele>
        <time>2015-03-28T13:55:24Z</time>
      </trkpt>
      <trkpt lat="43.49208" lon="6.47138">
        <ele>176.2</ele>
        <time>2015-03-28T13:55:32Z</time>
      </trkpt>
      <trkpt lat="43.49201" lon="6.4713">
        <ele>174.4</ele>
        <time>2015-03-28T13:55:42Z</time>
      </trkpt>
      <trkpt lat="43.492" lon="6.47129">
        <ele>174.2</ele>
        <time>2015-03-28T13:55:43Z</time>
      </trkpt>
      <trkpt lat="43.49186" lon="6.47117">
        <ele>173.5</ele>
        <time>2015-03-28T13:55:58Z</time>
      </trkpt>
      <trkpt lat="43.49179" lon="6.47111">
        <ele>173.7</ele>
        <time>2015-03-28T13:56:05Z</time>
      </trkpt>
      <trkpt lat="43.49177" lon="6.471">
        <ele>174.6</ele>
        <time>2015-03-28T13:57:07Z</time>
      </trkpt>
      <trkpt lat="43.49177" lon="6.47098">
        <ele>174.3</ele>
        <time>2015-03-28T13:57:08Z</time>
      </trkpt>
      <trkpt lat="43.49185" lon="6.47078">
        <ele>175</ele>
        <time>2015-03-28T13:57:25Z</time>
      </trkpt>
      <trkpt lat="43.49188" lon="6.47067">
        <ele>175</ele>
        <time>2015-03-28T13:57:40Z</time>
      </trkpt>
      <trkpt lat="43.49195" lon="6.4706">
        <ele>174.6</ele>
        <time>2015-03-28T13:58:01Z</time>
      </trkpt>
      <trkpt lat="43.49199" lon="6.4705">
        <ele>175.8</ele>
        <time>2015-03-28T13:58:11Z</time>
      </trkpt>
      <trkpt lat="43.49199" lon="6.47049">
        <ele>175.4</ele>
        <time>2015-03-28T13:58:12Z</time>
      </trkpt>
      <trkpt lat="43.49204" lon="6.47027">
        <ele>176.2</ele>
        <time>2015-03-28T13:58:29Z</time>
      </trkpt>
      <trkpt lat="43.49203" lon="6.47015">
        <ele>176</ele>
        <time>2015-03-28T13:58:40Z</time>
      </trkpt>
      <trkpt lat="43.49201" lon="6.47005">
        <ele>175.8</ele>
        <time>2015-03-28T13:58:48Z</time>
      </trkpt>
      <trkpt lat="43.49199" lon="6.46993">
        <ele>176.2</ele>
        <time>2015-03-28T13:58:56Z</time>
      </trkpt>
      <trkpt lat="43.492" lon="6.46982">
        <ele>177</ele>
        <time>2015-03-28T13:59:04Z</time>
      </trkpt>
      <trkpt lat="43.49204" lon="6.46971">
        <ele>177.3</ele>
        <time>2015-03-28T13:59:13Z</time>
      </trkpt>
      <trkpt lat="43.49204" lon="6.4697">
        <ele>177</ele>
        <time>2015-03-28T13:59:14Z</time>
      </trkpt>
      <trkpt lat="43.49211" lon="6.4695">
        <ele>177.8</ele>
        <time>2015-03-28T13:59:28Z</time>
      </trkpt>
      <trkpt lat="43.49214" lon="6.46939">
        <ele>177.9</ele>
        <time>2015-03-28T13:59:35Z</time>
      </trkpt>
      <trkpt lat="43.49217" lon="6.46928">
        <ele>177.3</ele>
        <time>2015-03-28T13:59:44Z</time>
      </trkpt>
      <trkpt lat="43.4922" lon="6.46917">
        <ele>178.3</ele>
        <time>2015-03-28T13:59:52Z</time>
      </trkpt>
      <trkpt lat="43.49224" lon="6.46906">
        <ele>179.7</ele>
        <time>2015-03-28T14:00:00Z</time>
      </trkpt>
      <trkpt lat="43.49226" lon="6.46895">
        <ele>181.1</ele>
        <time>2015-03-28T14:00:09Z</time>
      </trkpt>
      <trkpt lat="43.49226" lon="6.46883">
        <ele>182.8</ele>
        <time>2015-03-28T14:00:18Z</time>
      </trkpt>
      <trkpt lat="43.49226" lon="6.46881">
        <ele>183.2</ele>
        <time>2015-03-28T14:00:19Z</time>
      </trkpt>
      <trkpt lat="43.49219" lon="6.46861">
        <ele>183.8</ele>
        <time>2015-03-28T14:00:35Z</time>
      </trkpt>
      <trkpt lat="43.49214" lon="6.46851">
        <ele>184.6</ele>
        <time>2015-03-28T14:00:43Z</time>
      </trkpt>
      <trkpt lat="43.49208" lon="6.46842">
        <ele>185.2</ele>
        <time>2015-03-28T14:00:52Z</time>
      </trkpt>
      <trkpt lat="43.49201" lon="6.46835">
        <ele>184.5</ele>
        <time>2015-03-28T14:01:01Z</time>
      </trkpt>
      <trkpt lat="43.49195" lon="6.46827">
        <ele>183.9</ele>
        <time>2015-03-28T14:01:09Z</time>
      </trkpt>
      <trkpt lat="43.49189" lon="6.46818">
        <ele>184.4</ele>
        <time>2015-03-28T14:01:16Z</time>
      </trkpt>
      <trkpt lat="43.49183" lon="6.46809">
        <ele>183.9</ele>
        <time>2015-03-28T14:01:23Z</time>
      </trkpt>
      <trkpt lat="43.49182" lon="6.46808">
        <ele>183.6</ele>
        <time>2015-03-28T14:01:24Z</time>
      </trkpt>
      <trkpt lat="43.49172" lon="6.4679">
        <ele>183.9</ele>
        <time>2015-03-28T14:01:39Z</time>
      </trkpt>
      <trkpt lat="43.49168" lon="6.4678">
        <ele>183.7</ele>
        <time>2015-03-28T14:01:47Z</time>
      </trkpt>
      <trkpt lat="43.49164" lon="6.4677">
        <ele>183.3</ele>
        <time>2015-03-28T14:01:56Z</time>
      </trkpt>
      <trkpt lat="43.49158" lon="6.46761">
        <ele>182</ele>
        <time>2015-03-28T14:02:02Z</time>
      </trkpt>
      <trkpt lat="43.49154" lon="6.46752">
        <ele>181.6</ele>
        <time>2015-03-28T14:02:08Z</time>
      </trkpt>
      <trkpt lat="43.49149" lon="6.46742">
        <ele>182.2</ele>
        <time>2015-03-28T14:02:14Z</time>
      </trkpt>
      <trkpt lat="43.49145" lon="6.46732">
        <ele>182.6</ele>
        <time>2015-03-28T14:02:21Z</time>
      </trkpt>
      <trkpt lat="43.49142" lon="6.46721">
        <ele>182.2</ele>
        <time>2015-03-28T14:02:32Z</time>
      </trkpt>
      <trkpt lat="43.49142" lon="6.4672">
        <ele>182.1</ele>
        <time>2015-03-28T14:02:33Z</time>
      </trkpt>
      <trkpt lat="43.49132" lon="6.46701">
        <ele>181.8</ele>
        <time>2015-03-28T14:02:50Z</time>
      </trkpt>
      <trkpt lat="43.49127" lon="6.46694">
        <ele>181.1</ele>
        <time>2015-03-28T14:02:56Z</time>
      </trkpt>
      <trkpt lat="43.49121" lon="6.46688">
        <ele>180.9</ele>
        <time>2015-03-28T14:03:01Z</time>
      </trkpt>
      <trkpt lat="43.49114" lon="6.46681">
        <ele>182.2</ele>
        <time>2015-03-28T14:03:07Z</time>
      </trkpt>
      <trkpt lat="43.49107" lon="6.46673">
        <ele>182.5</ele>
        <time>2015-03-28T14:03:14Z</time>
      </trkpt>
      <trkpt lat="43.49102" lon="6.46663">
        <ele>183.5</ele>
        <time>2015-03-28T14:03:24Z</time>
      </trkpt>
      <trkpt lat="43.49106" lon="6.46653">
        <ele>186.1</ele>
        <time>2015-03-28T14:06:43Z</time>
      </trkpt>
      <trkpt lat="43.49106" lon="6.46652">
        <ele>186</ele>
        <time>2015-03-28T14:06:44Z</time>
      </trkpt>
      <trkpt lat="43.49111" lon="6.4663">
        <ele>188.1</ele>
        <time>2015-03-28T14:07:12Z</time>
      </trkpt>
      <trkpt lat="43.49114" lon="6.46618">
        <ele>189.2</ele>
        <time>2015-03-28T14:07:23Z</time>
      </trkpt>
      <trkpt lat="43.49118" lon="6.46608">
        <ele>191.4</ele>
        <time>2015-03-28T14:07:35Z</time>
      </trkpt>
      <trkpt lat="43.49121" lon="6.46597">
        <ele>192</ele>
        <time>2015-03-28T14:07:48Z</time>
      </trkpt>
      <trkpt lat="43.49122" lon="6.46596">
        <ele>192.5</ele>
        <time>2015-03-28T14:07:49Z</time>
      </trkpt>
      <trkpt lat="43.49127" lon="6.46574">
        <ele>194.5</ele>
        <time>2015-03-28T14:08:14Z</time>
      </trkpt>
      <trkpt lat="43.49129" lon="6.46563">
        <ele>195.6</ele>
        <time>2015-03-28T14:08:26Z</time>
      </trkpt>
      <trkpt lat="43.49131" lon="6.46551">
        <ele>197.6</ele>
        <time>2015-03-28T14:08:40Z</time>
      </trkpt>
      <trkpt lat="43.49133" lon="6.46539">
        <ele>198.6</ele>
        <time>2015-03-28T14:08:54Z</time>
      </trkpt>
      <trkpt lat="43.49133" lon="6.46538">
        <ele>198.7</ele>
        <time>2015-03-28T14:08:55Z</time>
      </trkpt>
      <trkpt lat="43.49135" lon="6.46516">
        <ele>201.5</ele>
        <time>2015-03-28T14:09:18Z</time>
      </trkpt>
      <trkpt lat="43.49136" lon="6.46504">
        <ele>204.2</ele>
        <time>2015-03-28T14:09:29Z</time>
      </trkpt>
      <trkpt lat="43.49138" lon="6.46493">
        <ele>205.8</ele>
        <time>2015-03-28T14:09:39Z</time>
      </trkpt>
      <trkpt lat="43.49139" lon="6.46481">
        <ele>207.1</ele>
        <time>2015-03-28T14:09:51Z</time>
      </trkpt>
      <trkpt lat="43.49145" lon="6.46471">
        <ele>209.5</ele>
        <time>2015-03-28T14:10:00Z</time>
      </trkpt>
      <trkpt lat="43.49145" lon="6.4647">
        <ele>209.6</ele>
        <time>2015-03-28T14:10:01Z</time>
      </trkpt>
      <trkpt lat="43.49134" lon="6.46457">
        <ele>211.1</ele>
        <time>2015-03-28T14:10:22Z</time>
      </trkpt>
      <trkpt lat="43.49126" lon="6.46454">
        <ele>212.7</ele>
        <time>2015-03-28T14:10:33Z</time>
      </trkpt>
      <trkpt lat="43.49118" lon="6.46451">
        <ele>212.3</ele>
        <time>2015-03-28T14:10:41Z</time>
      </trkpt>
      <trkpt lat="43.49111" lon="6.46445">
        <ele>213.2</ele>
        <time>2015-03-28T14:10:53Z</time>
      </trkpt>
      <trkpt lat="43.49113" lon="6.46433">
        <ele>213.9</ele>
        <time>2015-03-28T14:11:06Z</time>
      </trkpt>
      <trkpt lat="43.49114" lon="6.46432">
        <ele>214</ele>
        <time>2015-03-28T14:11:07Z</time>
      </trkpt>
      <trkpt lat="43.49122" lon="6.46413">
        <ele>216.7</ele>
        <time>2015-03-28T14:11:26Z</time>
      </trkpt>
      <trkpt lat="43.49128" lon="6.46406">
        <ele>217.7</ele>
        <time>2015-03-28T14:11:35Z</time>
      </trkpt>
      <trkpt lat="43.49134" lon="6.46398">
        <ele>217.7</ele>
        <time>2015-03-28T14:11:44Z</time>
      </trkpt>
      <trkpt lat="43.49139" lon="6.46389">
        <ele>218.2</ele>
        <time>2015-03-28T14:11:53Z</time>
      </trkpt>
      <trkpt lat="43.49146" lon="6.46382">
        <ele>219.3</ele>
        <time>2015-03-28T14:12:02Z</time>
      </trkpt>
      <trkpt lat="43.49151" lon="6.46374">
        <ele>220.2</ele>
        <time>2015-03-28T14:12:11Z</time>
      </trkpt>
      <trkpt lat="43.49152" lon="6.46373">
        <ele>219.9</ele>
        <time>2015-03-28T14:12:12Z</time>
      </trkpt>
      <trkpt lat="43.49157" lon="6.46353">
        <ele>220.4</ele>
        <time>2015-03-28T14:12:28Z</time>
      </trkpt>
      <trkpt lat="43.49161" lon="6.46343">
        <ele>220.6</ele>
        <time>2015-03-28T14:12:35Z</time>
      </trkpt>
      <trkpt lat="43.49167" lon="6.46334">
        <ele>220</ele>
        <time>2015-03-28T14:12:44Z</time>
      </trkpt>
      <trkpt lat="43.49174" lon="6.46326">
        <ele>218.9</ele>
        <time>2015-03-28T14:12:54Z</time>
      </trkpt>
      <trkpt lat="43.49181" lon="6.46319">
        <ele>219.2</ele>
        <time>2015-03-28T14:13:01Z</time>
      </trkpt>
      <trkpt lat="43.49187" lon="6.46312">
        <ele>218.8</ele>
        <time>2015-03-28T14:13:07Z</time>
      </trkpt>
      <trkpt lat="43.49192" lon="6.46303">
        <ele>217.9</ele>
        <time>2015-03-28T14:13:17Z</time>
      </trkpt>
      <trkpt lat="43.49193" lon="6.46302">
        <ele>217.6</ele>
        <time>2015-03-28T14:13:18Z</time>
      </trkpt>
      <trkpt lat="43.49205" lon="6.46289">
        <ele>218.1</ele>
        <time>2015-03-28T14:13:29Z</time>
      </trkpt>
      <trkpt lat="43.49212" lon="6.46283">
        <ele>219.5</ele>
        <time>2015-03-28T14:13:36Z</time>
      </trkpt>
      <trkpt lat="43.49219" lon="6.46278">
        <ele>219.7</ele>
        <time>2015-03-28T14:13:45Z</time>
      </trkpt>
      <trkpt lat="43.49226" lon="6.4627">
        <ele>218.7</ele>
        <time>2015-03-28T14:13:52Z</time>
      </trkpt>
      <trkpt lat="43.49233" lon="6.46263">
        <ele>218.5</ele>
        <time>2015-03-28T14:13:59Z</time>
      </trkpt>
      <trkpt lat="43.4924" lon="6.46255">
        <ele>218.8</ele>
        <time>2015-03-28T14:14:08Z</time>
      </trkpt>
      <trkpt lat="43.49246" lon="6.46246">
        <ele>217.5</ele>
        <time>2015-03-28T14:14:17Z</time>
      </trkpt>
      <trkpt lat="43.49249" lon="6.46236">
        <ele>218.5</ele>
        <time>2015-03-28T14:14:27Z</time>
      </trkpt>
      <trkpt lat="43.4925" lon="6.46235">
        <ele>218.1</ele>
        <time>2015-03-28T14:14:28Z</time>
      </trkpt>
      <trkpt lat="43.49262" lon="6.46221">
        <ele>216.7</ele>
        <time>2015-03-28T14:14:43Z</time>
      </trkpt>
      <trkpt lat="43.49266" lon="6.46211">
        <ele>215.6</ele>
        <time>2015-03-28T14:14:51Z</time>
      </trkpt>
      <trkpt lat="43.49272" lon="6.46203">
        <ele>214.2</ele>
        <time>2015-03-28T14:14:58Z</time>
      </trkpt>
      <trkpt lat="43.49276" lon="6.46192">
        <ele>214.2</ele>
        <time>2015-03-28T14:15:07Z</time>
      </trkpt>
      <trkpt lat="43.49278" lon="6.46181">
        <ele>214.1</ele>
        <time>2015-03-28T14:15:14Z</time>
      </trkpt>
      <trkpt lat="43.49281" lon="6.4617">
        <ele>212.6</ele>
        <time>2015-03-28T14:15:22Z</time>
      </trkpt>
      <trkpt lat="43.49287" lon="6.46161">
        <ele>211.3</ele>
        <time>2015-03-28T14:15:29Z</time>
      </trkpt>
      <trkpt lat="43.49288" lon="6.4616">
        <ele>211.4</ele>
        <time>2015-03-28T14:15:30Z</time>
      </trkpt>
      <trkpt lat="43.493" lon="6.46147">
        <ele>211</ele>
        <time>2015-03-28T14:15:48Z</time>
      </trkpt>
      <trkpt lat="43.49308" lon="6.46143">
        <ele>211.7</ele>
        <time>2015-03-28T14:15:57Z</time>
      </trkpt>
      <trkpt lat="43.49316" lon="6.46137">
        <ele>210.9</ele>
        <time>2015-03-28T14:16:06Z</time>
      </trkpt>
      <trkpt lat="43.49323" lon="6.46131">
        <ele>211.5</ele>
        <time>2015-03-28T14:16:16Z</time>
      </trkpt>
      <trkpt lat="43.49331" lon="6.46125">
        <ele>211.8</ele>
        <time>2015-03-28T14:16:26Z</time>
      </trkpt>
      <trkpt lat="43.49338" lon="6.46119">
        <ele>212.3</ele>
        <time>2015-03-28T14:16:34Z</time>
      </trkpt>
      <trkpt lat="43.49339" lon="6.46118">
        <ele>212.1</ele>
        <time>2015-03-28T14:16:35Z</time>
      </trkpt>
      <trkpt lat="43.49352" lon="6.46105">
        <ele>213.7</ele>
        <time>2015-03-28T14:16:52Z</time>
      </trkpt>
      <trkpt lat="43.49361" lon="6.46104">
        <ele>215.1</ele>
        <time>2015-03-28T14:17:02Z</time>
      </trkpt>
      <trkpt lat="43.49369" lon="6.46105">
        <ele>216.4</ele>
        <time>2015-03-28T14:17:11Z</time>
      </trkpt>
      <trkpt lat="43.49377" lon="6.46101">
        <ele>218</ele>
        <time>2015-03-28T14:17:21Z</time>
      </trkpt>
      <trkpt lat="43.49386" lon="6.46101">
        <ele>218.8</ele>
        <time>2015-03-28T14:17:30Z</time>
      </trkpt>
      <trkpt lat="43.49394" lon="6.46104">
        <ele>220.2</ele>
        <time>2015-03-28T14:17:38Z</time>
      </trkpt>
      <trkpt lat="43.49395" lon="6.46104">
        <ele>220.4</ele>
        <time>2015-03-28T14:17:39Z</time>
      </trkpt>
      <trkpt lat="43.49411" lon="6.46103">
        <ele>222.1</ele>
        <time>2015-03-28T14:18:00Z</time>
      </trkpt>
      <trkpt lat="43.49419" lon="6.46102">
        <ele>224</ele>
        <time>2015-03-28T14:18:11Z</time>
      </trkpt>
      <trkpt lat="43.49428" lon="6.46102">
        <ele>225</ele>
        <time>2015-03-28T14:18:22Z</time>
      </trkpt>
      <trkpt lat="43.49437" lon="6.461">
        <ele>226.6</ele>
        <time>2015-03-28T14:18:49Z</time>
      </trkpt>
      <trkpt lat="43.49437" lon="6.461">
        <ele>226.4</ele>
        <time>2015-03-28T14:18:50Z</time>
      </trkpt>
      <trkpt lat="43.49453" lon="6.46104">
        <ele>226.2</ele>
        <time>2015-03-28T14:19:13Z</time>
      </trkpt>
      <trkpt lat="43.49444" lon="6.46103">
        <ele>225.9</ele>
        <time>2015-03-28T14:20:03Z</time>
      </trkpt>
      <trkpt lat="43.49444" lon="6.46103">
        <ele>226.1</ele>
        <time>2015-03-28T14:20:04Z</time>
      </trkpt>
      <trkpt lat="43.49452" lon="6.46097">
        <ele>225.6</ele>
        <time>2015-03-28T14:21:49Z</time>
      </trkpt>
      <trkpt lat="43.49459" lon="6.46076">
        <ele>223.7</ele>
        <time>2015-03-28T14:22:13Z</time>
      </trkpt>
      <trkpt lat="43.49466" lon="6.46068">
        <ele>224.1</ele>
        <time>2015-03-28T14:22:22Z</time>
      </trkpt>
      <trkpt lat="43.49472" lon="6.4606">
        <ele>222.8</ele>
        <time>2015-03-28T14:22:33Z</time>
      </trkpt>
      <trkpt lat="43.49478" lon="6.46052">
        <ele>223</ele>
        <time>2015-03-28T14:22:41Z</time>
      </trkpt>
      <trkpt lat="43.49487" lon="6.46048">
        <ele>222.9</ele>
        <time>2015-03-28T14:22:50Z</time>
      </trkpt>
      <trkpt lat="43.49488" lon="6.46048">
        <ele>222.7</ele>
        <time>2015-03-28T14:22:51Z</time>
      </trkpt>
      <trkpt lat="43.49503" lon="6.46045">
        <ele>222.5</ele>
        <time>2015-03-28T14:23:05Z</time>
      </trkpt>
      <trkpt lat="43.49512" lon="6.46046">
        <ele>222.5</ele>
        <time>2015-03-28T14:23:12Z</time>
      </trkpt>
      <trkpt lat="43.4952" lon="6.46046">
        <ele>221.9</ele>
        <time>2015-03-28T14:23:19Z</time>
      </trkpt>
      <trkpt lat="43.49528" lon="6.46047">
        <ele>222</ele>
        <time>2015-03-28T14:23:27Z</time>
      </trkpt>
      <trkpt lat="43.49536" lon="6.46048">
        <ele>222.8</ele>
        <time>2015-03-28T14:23:33Z</time>
      </trkpt>
      <trkpt lat="43.49544" lon="6.46049">
        <ele>221.9</ele>
        <time>2015-03-28T14:23:41Z</time>
      </trkpt>
      <trkpt lat="43.49552" lon="6.46051">
        <ele>220.5</ele>
        <time>2015-03-28T14:23:50Z</time>
      </trkpt>
      <trkpt lat="43.4956" lon="6.46057">
        <ele>220.9</ele>
        <time>2015-03-28T14:23:59Z</time>
      </trkpt>
      <trkpt lat="43.49561" lon="6.46058">
        <ele>221.2</ele>
        <time>2015-03-28T14:24:00Z</time>
      </trkpt>
      <trkpt lat="43.49573" lon="6.46071">
        <ele>221.3</ele>
        <time>2015-03-28T14:24:14Z</time>
      </trkpt>
      <trkpt lat="43.49581" lon="6.46077">
        <ele>222.6</ele>
        <time>2015-03-28T14:24:22Z</time>
      </trkpt>
      <trkpt lat="43.49587" lon="6.46084">
        <ele>222.2</ele>
        <time>2015-03-28T14:24:30Z</time>
      </trkpt>
      <trkpt lat="43.49594" lon="6.46092">
        <ele>223.6</ele>
        <time>2015-03-28T14:24:38Z</time>
      </trkpt>
      <trkpt lat="43.49601" lon="6.46099">
        <ele>223.1</ele>
        <time>2015-03-28T14:24:46Z</time>
      </trkpt>
      <trkpt lat="43.49607" lon="6.46107">
        <ele>223.6</ele>
        <time>2015-03-28T14:24:54Z</time>
      </trkpt>
      <trkpt lat="43.49613" lon="6.46116">
        <ele>224.2</ele>
        <time>2015-03-28T14:25:03Z</time>
      </trkpt>
      <trkpt lat="43.49614" lon="6.46117">
        <ele>223.8</ele>
        <time>2015-03-28T14:25:04Z</time>
      </trkpt>
      <trkpt lat="43.49625" lon="6.46132">
        <ele>224.6</ele>
        <time>2015-03-28T14:25:18Z</time>
      </trkpt>
      <trkpt lat="43.49631" lon="6.46139">
        <ele>225</ele>
        <time>2015-03-28T14:25:25Z</time>
      </trkpt>
      <trkpt lat="43.49637" lon="6.46146">
        <ele>226.4</ele>
        <time>2015-03-28T14:25:32Z</time>
      </trkpt>
      <trkpt lat="43.49644" lon="6.46152">
        <ele>227.5</ele>
        <time>2015-03-28T14:25:39Z</time>
      </trkpt>
      <trkpt lat="43.49651" lon="6.46157">
        <ele>227.9</ele>
        <time>2015-03-28T14:25:46Z</time>
      </trkpt>
      <trkpt lat="43.49659" lon="6.46161">
        <ele>229.3</ele>
        <time>2015-03-28T14:25:53Z</time>
      </trkpt>
      <trkpt lat="43.49667" lon="6.46161">
        <ele>229.6</ele>
        <time>2015-03-28T14:26:14Z</time>
      </trkpt>
      <trkpt lat="43.49668" lon="6.4616">
        <ele>229.4</ele>
        <time>2015-03-28T14:26:15Z</time>
      </trkpt>
      <trkpt lat="43.49679" lon="6.46145">
        <ele>228.6</ele>
        <time>2015-03-28T14:26:32Z</time>
      </trkpt>
      <trkpt lat="43.49684" lon="6.46136">
        <ele>227.8</ele>
        <time>2015-03-28T14:26:39Z</time>
      </trkpt>
      <trkpt lat="43.49689" lon="6.46128">
        <ele>228</ele>
        <time>2015-03-28T14:26:46Z</time>
      </trkpt>
      <trkpt lat="43.49695" lon="6.46119">
        <ele>226.4</ele>
        <time>2015-03-28T14:26:54Z</time>
      </trkpt>
      <trkpt lat="43.497" lon="6.4611">
        <ele>225.6</ele>
        <time>2015-03-28T14:27:01Z</time>
      </trkpt>
      <trkpt lat="43.49706" lon="6.46102">
        <ele>225</ele>
        <time>2015-03-28T14:27:08Z</time>
      </trkpt>
      <trkpt lat="43.49712" lon="6.46093">
        <ele>224.2</ele>
        <time>2015-03-28T14:27:15Z</time>
      </trkpt>
      <trkpt lat="43.49712" lon="6.46092">
        <ele>224.1</ele>
        <time>2015-03-28T14:27:16Z</time>
      </trkpt>
      <trkpt lat="43.49724" lon="6.46076">
        <ele>223.4</ele>
        <time>2015-03-28T14:27:31Z</time>
      </trkpt>
      <trkpt lat="43.4973" lon="6.46068">
        <ele>223.6</ele>
        <time>2015-03-28T14:27:39Z</time>
      </trkpt>
      <trkpt lat="43.49736" lon="6.4606">
        <ele>223.6</ele>
        <time>2015-03-28T14:27:47Z</time>
      </trkpt>
      <trkpt lat="43.49741" lon="6.46051">
        <ele>223</ele>
        <time>2015-03-28T14:27:55Z</time>
      </trkpt>
      <trkpt lat="43.49747" lon="6.46042">
        <ele>222</ele>
        <time>2015-03-28T14:28:02Z</time>
      </trkpt>
      <trkpt lat="43.49752" lon="6.46033">
        <ele>222</ele>
        <time>2015-03-28T14:28:10Z</time>
      </trkpt>
      <trkpt lat="43.49758" lon="6.46025">
        <ele>221.5</ele>
        <time>2015-03-28T14:28:17Z</time>
      </trkpt>
      <trkpt lat="43.49758" lon="6.46023">
        <ele>222</ele>
        <time>2015-03-28T14:28:18Z</time>
      </trkpt>
      <trkpt lat="43.49769" lon="6.46008">
        <ele>222.8</ele>
        <time>2015-03-28T14:28:31Z</time>
      </trkpt>
      <trkpt lat="43.49775" lon="6.45999">
        <ele>221.7</ele>
        <time>2015-03-28T14:28:39Z</time>
      </trkpt>
      <trkpt lat="43.4978" lon="6.4599">
        <ele>221.9</ele>
        <time>2015-03-28T14:28:47Z</time>
      </trkpt>
      <trkpt lat="43.49787" lon="6.45981">
        <ele>222.7</ele>
        <time>2015-03-28T14:28:55Z</time>
      </trkpt>
      <trkpt lat="43.49793" lon="6.45973">
        <ele>222.7</ele>
        <time>2015-03-28T14:29:03Z</time>
      </trkpt>
      <trkpt lat="43.49799" lon="6.45965">
        <ele>224.2</ele>
        <time>2015-03-28T14:29:11Z</time>
      </trkpt>
      <trkpt lat="43.49807" lon="6.4596">
        <ele>223.6</ele>
        <time>2015-03-28T14:29:22Z</time>
      </trkpt>
      <trkpt lat="43.49808" lon="6.4596">
        <ele>224.1</ele>
        <time>2015-03-28T14:29:23Z</time>
      </trkpt>
      <trkpt lat="43.49821" lon="6.45947">
        <ele>224.8</ele>
        <time>2015-03-28T14:29:46Z</time>
      </trkpt>
      <trkpt lat="43.49827" lon="6.45939">
        <ele>224.9</ele>
        <time>2015-03-28T14:29:55Z</time>
      </trkpt>
      <trkpt lat="43.49833" lon="6.45931">
        <ele>223.8</ele>
        <time>2015-03-28T14:30:03Z</time>
      </trkpt>
      <trkpt lat="43.4984" lon="6.45923">
        <ele>224.3</ele>
        <time>2015-03-28T14:30:12Z</time>
      </trkpt>
      <trkpt lat="43.49845" lon="6.45914">
        <ele>223.1</ele>
        <time>2015-03-28T14:30:21Z</time>
      </trkpt>
      <trkpt lat="43.49849" lon="6.45905">
        <ele>222.7</ele>
        <time>2015-03-28T14:30:29Z</time>
      </trkpt>
      <trkpt lat="43.49849" lon="6.45903">
        <ele>222.9</ele>
        <time>2015-03-28T14:30:30Z</time>
      </trkpt>
      <trkpt lat="43.49855" lon="6.45883">
        <ele>223</ele>
        <time>2015-03-28T14:30:44Z</time>
      </trkpt>
      <trkpt lat="43.49857" lon="6.45872">
        <ele>221.2</ele>
        <time>2015-03-28T14:30:51Z</time>
      </trkpt>
      <trkpt lat="43.49858" lon="6.45861">
        <ele>222.9</ele>
        <time>2015-03-28T14:30:58Z</time>
      </trkpt>
      <trkpt lat="43.4986" lon="6.45849">
        <ele>221.8</ele>
        <time>2015-03-28T14:31:05Z</time>
      </trkpt>
      <trkpt lat="43.49862" lon="6.45838">
        <ele>222.9</ele>
        <time>2015-03-28T14:31:12Z</time>
      </trkpt>
      <trkpt lat="43.49863" lon="6.45826">
        <ele>223.7</ele>
        <time>2015-03-28T14:31:19Z</time>
      </trkpt>
      <trkpt lat="43.49864" lon="6.45815">
        <ele>225.1</ele>
        <time>2015-03-28T14:31:27Z</time>
      </trkpt>
      <trkpt lat="43.49867" lon="6.45805">
        <ele>224.7</ele>
        <time>2015-03-28T14:31:34Z</time>
      </trkpt>
      <trkpt lat="43.49867" lon="6.45803">
        <ele>224.8</ele>
        <time>2015-03-28T14:31:35Z</time>
      </trkpt>
      <trkpt lat="43.49873" lon="6.45785">
        <ele>225.1</ele>
        <time>2015-03-28T14:31:47Z</time>
      </trkpt>
      <trkpt lat="43.49878" lon="6.45775">
        <ele>225.4</ele>
        <time>2015-03-28T14:31:54Z</time>
      </trkpt>
      <trkpt lat="43.49882" lon="6.45764">
        <ele>225</ele>
        <time>2015-03-28T14:32:01Z</time>
      </trkpt>
      <trkpt lat="43.49886" lon="6.45754">
        <ele>225.1</ele>
        <time>2015-03-28T14:32:08Z</time>
      </trkpt>
      <trkpt lat="43.49891" lon="6.45745">
        <ele>224.8</ele>
        <time>2015-03-28T14:32:15Z</time>
      </trkpt>
      <trkpt lat="43.49896" lon="6.45736">
        <ele>226.2</ele>
        <time>2015-03-28T14:32:22Z</time>
      </trkpt>
      <trkpt lat="43.49901" lon="6.45727">
        <ele>226.2</ele>
        <time>2015-03-28T14:32:30Z</time>
      </trkpt>
      <trkpt lat="43.49907" lon="6.45717">
        <ele>225.7</ele>
        <time>2015-03-28T14:37:24Z</time>
      </trkpt>
      <trkpt lat="43.49907" lon="6.45716">
        <ele>225.9</ele>
        <time>2015-03-28T14:37:25Z</time>
      </trkpt>
      <trkpt lat="43.49915" lon="6.45698">
        <ele>224.7</ele>
        <time>2015-03-28T14:37:41Z</time>
      </trkpt>
      <trkpt lat="43.49921" lon="6.45689">
        <ele>223.6</ele>
        <time>2015-03-28T14:37:48Z</time>
      </trkpt>
      <trkpt lat="43.49926" lon="6.4568">
        <ele>224.3</ele>
        <time>2015-03-28T14:37:54Z</time>
      </trkpt>
      <trkpt lat="43.49931" lon="6.4567">
        <ele>223.8</ele>
        <time>2015-03-28T14:38:01Z</time>
      </trkpt>
      <trkpt lat="43.49935" lon="6.45659">
        <ele>222.5</ele>
        <time>2015-03-28T14:38:10Z</time>
      </trkpt>
      <trkpt lat="43.49939" lon="6.45648">
        <ele>221</ele>
        <time>2015-03-28T14:38:18Z</time>
      </trkpt>
      <trkpt lat="43.49943" lon="6.45639">
        <ele>219.1</ele>
        <time>2015-03-28T14:38:25Z</time>
      </trkpt>
      <trkpt lat="43.49944" lon="6.45637">
        <ele>219.5</ele>
        <time>2015-03-28T14:38:26Z</time>
      </trkpt>
      <trkpt lat="43.49953" lon="6.45618">
        <ele>218.2</ele>
        <time>2015-03-28T14:38:42Z</time>
      </trkpt>
      <trkpt lat="43.49957" lon="6.45608">
        <ele>217.4</ele>
        <time>2015-03-28T14:38:50Z</time>
      </trkpt>
      <trkpt lat="43.49961" lon="6.45597">
        <ele>215.7</ele>
        <time>2015-03-28T14:38:58Z</time>
      </trkpt>
      <trkpt lat="43.4997" lon="6.45595">
        <ele>216.4</ele>
        <time>2015-03-28T14:39:09Z</time>
      </trkpt>
      <trkpt lat="43.49977" lon="6.45601">
        <ele>216.5</ele>
        <time>2015-03-28T14:39:19Z</time>
      </trkpt>
      <trkpt lat="43.49984" lon="6.45608">
        <ele>215.8</ele>
        <time>2015-03-28T14:39:29Z</time>
      </trkpt>
      <trkpt lat="43.49985" lon="6.45609">
        <ele>215.9</ele>
        <time>2015-03-28T14:39:30Z</time>
      </trkpt>
      <trkpt lat="43.49997" lon="6.45623">
        <ele>214.8</ele>
        <time>2015-03-28T14:39:46Z</time>
      </trkpt>
      <trkpt lat="43.50003" lon="6.45631">
        <ele>214.3</ele>
        <time>2015-03-28T14:39:53Z</time>
      </trkpt>
      <trkpt lat="43.50007" lon="6.45641">
        <ele>214</ele>
        <time>2015-03-28T14:39:59Z</time>
      </trkpt>
      <trkpt lat="43.50015" lon="6.45645">
        <ele>215.2</ele>
        <time>2015-03-28T14:40:06Z</time>
      </trkpt>
      <trkpt lat="43.50023" lon="6.45643">
        <ele>214.5</ele>
        <time>2015-03-28T14:40:13Z</time>
      </trkpt>
      <trkpt lat="43.5003" lon="6.45635">
        <ele>214.8</ele>
        <time>2015-03-28T14:40:21Z</time>
      </trkpt>
      <trkpt lat="43.50036" lon="6.45629">
        <ele>214.3</ele>
        <time>2015-03-28T14:40:28Z</time>
      </trkpt>
      <trkpt lat="43.50042" lon="6.45621">
        <ele>213.8</ele>
        <time>2015-03-28T14:40:35Z</time>
      </trkpt>
      <trkpt lat="43.50043" lon="6.4562">
        <ele>213.9</ele>
        <time>2015-03-28T14:40:36Z</time>
      </trkpt>
      <trkpt lat="43.50055" lon="6.45607">
        <ele>213.4</ele>
        <time>2015-03-28T14:40:49Z</time>
      </trkpt>
      <trkpt lat="43.50061" lon="6.45599">
        <ele>213.6</ele>
        <time>2015-03-28T14:40:57Z</time>
      </trkpt>
      <trkpt lat="43.50068" lon="6.45592">
        <ele>213.7</ele>
        <time>2015-03-28T14:41:04Z</time>
      </trkpt>
      <trkpt lat="43.50073" lon="6.45584">
        <ele>213.9</ele>
        <time>2015-03-28T14:41:11Z</time>
      </trkpt>
      <trkpt lat="43.50079" lon="6.45577">
        <ele>214.6</ele>
        <time>2015-03-28T14:41:19Z</time>
      </trkpt>
      <trkpt lat="43.50085" lon="6.45568">
        <ele>214.5</ele>
        <time>2015-03-28T14:41:26Z</time>
      </trkpt>
      <trkpt lat="43.50092" lon="6.4556">
        <ele>215.6</ele>
        <time>2015-03-28T14:41:35Z</time>
      </trkpt>
      <trkpt lat="43.50099" lon="6.45555">
        <ele>216</ele>
        <time>2015-03-28T14:42:05Z</time>
      </trkpt>
      <trkpt lat="43.501" lon="6.45554">
        <ele>216.1</ele>
        <time>2015-03-28T14:42:06Z</time>
      </trkpt>
      <trkpt lat="43.50113" lon="6.45542">
        <ele>217.4</ele>
        <time>2015-03-28T14:42:27Z</time>
      </trkpt>
      <trkpt lat="43.50121" lon="6.45536">
        <ele>217.5</ele>
        <time>2015-03-28T14:42:37Z</time>
      </trkpt>
      <trkpt lat="43.50128" lon="6.45531">
        <ele>217.5</ele>
        <time>2015-03-28T14:42:46Z</time>
      </trkpt>
      <trkpt lat="43.50136" lon="6.45525">
        <ele>215.7</ele>
        <time>2015-03-28T14:42:53Z</time>
      </trkpt>
      <trkpt lat="43.50143" lon="6.45519">
        <ele>216.3</ele>
        <time>2015-03-28T14:43:01Z</time>
      </trkpt>
      <trkpt lat="43.5015" lon="6.45513">
        <ele>214.6</ele>
        <time>2015-03-28T14:43:09Z</time>
      </trkpt>
      <trkpt lat="43.50151" lon="6.45513">
        <ele>214.4</ele>
        <time>2015-03-28T14:43:10Z</time>
      </trkpt>
      <trkpt lat="43.50165" lon="6.45502">
        <ele>212.5</ele>
        <time>2015-03-28T14:43:28Z</time>
      </trkpt>
      <trkpt lat="43.50174" lon="6.455">
        <ele>211.9</ele>
        <time>2015-03-28T14:43:37Z</time>
      </trkpt>
      <trkpt lat="43.50181" lon="6.45497">
        <ele>211.2</ele>
        <time>2015-03-28T14:43:44Z</time>
      </trkpt>
      <trkpt lat="43.50189" lon="6.45492">
        <ele>211.6</ele>
        <time>2015-03-28T14:43:51Z</time>
      </trkpt>
      <trkpt lat="43.50197" lon="6.45492">
        <ele>211.3</ele>
        <time>2015-03-28T14:43:58Z</time>
      </trkpt>
      <trkpt lat="43.50205" lon="6.45491">
        <ele>211</ele>
        <time>2015-03-28T14:44:06Z</time>
      </trkpt>
      <trkpt lat="43.50214" lon="6.45488">
        <ele>210.6</ele>
        <time>2015-03-28T14:44:17Z</time>
      </trkpt>
      <trkpt lat="43.50214" lon="6.45488">
        <ele>210.5</ele>
        <time>2015-03-28T14:44:18Z</time>
      </trkpt>
      <trkpt lat="43.50231" lon="6.4549">
        <ele>211</ele>
        <time>2015-03-28T14:44:43Z</time>
      </trkpt>
      <trkpt lat="43.50239" lon="6.45485">
        <ele>210.9</ele>
        <time>2015-03-28T14:44:53Z</time>
      </trkpt>
      <trkpt lat="43.50247" lon="6.45482">
        <ele>210.7</ele>
        <time>2015-03-28T14:45:01Z</time>
      </trkpt>
      <trkpt lat="43.50254" lon="6.45477">
        <ele>212.2</ele>
        <time>2015-03-28T14:45:09Z</time>
      </trkpt>
      <trkpt lat="43.50263" lon="6.45475">
        <ele>212.9</ele>
        <time>2015-03-28T14:45:17Z</time>
      </trkpt>
      <trkpt lat="43.5027" lon="6.45469">
        <ele>213.7</ele>
        <time>2015-03-28T14:45:24Z</time>
      </trkpt>
      <trkpt lat="43.50271" lon="6.45468">
        <ele>213.3</ele>
        <time>2015-03-28T14:45:25Z</time>
      </trkpt>
      <trkpt lat="43.50285" lon="6.45457">
        <ele>213.1</ele>
        <time>2015-03-28T14:45:46Z</time>
      </trkpt>
      <trkpt lat="43.50293" lon="6.45454">
        <ele>212.9</ele>
        <time>2015-03-28T14:45:55Z</time>
      </trkpt>
      <trkpt lat="43.50301" lon="6.45451">
        <ele>211.6</ele>
        <time>2015-03-28T14:46:04Z</time>
      </trkpt>
      <trkpt lat="43.50309" lon="6.45445">
        <ele>212.4</ele>
        <time>2015-03-28T14:46:13Z</time>
      </trkpt>
      <trkpt lat="43.50314" lon="6.45436">
        <ele>212.2</ele>
        <time>2015-03-28T14:46:21Z</time>
      </trkpt>
      <trkpt lat="43.50321" lon="6.45431">
        <ele>213.1</ele>
        <time>2015-03-28T14:46:31Z</time>
      </trkpt>
      <trkpt lat="43.50322" lon="6.4543">
        <ele>213.3</ele>
        <time>2015-03-28T14:46:32Z</time>
      </trkpt>
      <trkpt lat="43.50338" lon="6.45427">
        <ele>212.2</ele>
        <time>2015-03-28T14:47:06Z</time>
      </trkpt>
      <trkpt lat="43.50345" lon="6.45425">
        <ele>213.5</ele>
        <time>2015-03-28T14:47:13Z</time>
      </trkpt>
      <trkpt lat="43.50352" lon="6.45418">
        <ele>212.5</ele>
        <time>2015-03-28T14:47:21Z</time>
      </trkpt>
      <trkpt lat="43.5036" lon="6.45412">
        <ele>210.6</ele>
        <time>2015-03-28T14:47:29Z</time>
      </trkpt>
      <trkpt lat="43.50368" lon="6.45408">
        <ele>210.4</ele>
        <time>2015-03-28T14:47:37Z</time>
      </trkpt>
      <trkpt lat="43.50369" lon="6.45408">
        <ele>210.4</ele>
        <time>2015-03-28T14:47:38Z</time>
      </trkpt>
      <trkpt lat="43.50384" lon="6.45399">
        <ele>208.3</ele>
        <time>2015-03-28T14:47:52Z</time>
      </trkpt>
      <trkpt lat="43.50391" lon="6.45392">
        <ele>205.7</ele>
        <time>2015-03-28T14:48:01Z</time>
      </trkpt>
      <trkpt lat="43.504" lon="6.45392">
        <ele>205.6</ele>
        <time>2015-03-28T14:48:13Z</time>
      </trkpt>
      <trkpt lat="43.50408" lon="6.45393">
        <ele>206.4</ele>
        <time>2015-03-28T14:49:45Z</time>
      </trkpt>
      <trkpt lat="43.50409" lon="6.45394">
        <ele>206.2</ele>
        <time>2015-03-28T14:49:46Z</time>
      </trkpt>
      <trkpt lat="43.5041" lon="6.45381">
        <ele>205.7</ele>
        <time>2015-03-28T14:51:30Z</time>
      </trkpt>
      <trkpt lat="43.50427" lon="6.45382">
        <ele>204.3</ele>
        <time>2015-03-28T14:51:48Z</time>
      </trkpt>
      <trkpt lat="43.50436" lon="6.45383">
        <ele>204.4</ele>
        <time>2015-03-28T14:51:57Z</time>
      </trkpt>
      <trkpt lat="43.50444" lon="6.45386">
        <ele>203.6</ele>
        <time>2015-03-28T14:52:06Z</time>
      </trkpt>
      <trkpt lat="43.50452" lon="6.45389">
        <ele>205.4</ele>
        <time>2015-03-28T14:52:15Z</time>
      </trkpt>
      <trkpt lat="43.5046" lon="6.45393">
        <ele>206.1</ele>
        <time>2015-03-28T14:52:23Z</time>
      </trkpt>
      <trkpt lat="43.50468" lon="6.45398">
        <ele>205.5</ele>
        <time>2015-03-28T14:52:29Z</time>
      </trkpt>
      <trkpt lat="43.50475" lon="6.45402">
        <ele>207.2</ele>
        <time>2015-03-28T14:52:35Z</time>
      </trkpt>
      <trkpt lat="43.50476" lon="6.45402">
        <ele>207.1</ele>
        <time>2015-03-28T14:52:36Z</time>
      </trkpt>
      <trkpt lat="43.50492" lon="6.45407">
        <ele>207</ele>
        <time>2015-03-28T14:52:50Z</time>
      </trkpt>
      <trkpt lat="43.505" lon="6.45406">
        <ele>207.6</ele>
        <time>2015-03-28T14:52:58Z</time>
      </trkpt>
      <trkpt lat="43.50509" lon="6.45407">
        <ele>207.6</ele>
        <time>2015-03-28T14:53:06Z</time>
      </trkpt>
      <trkpt lat="43.50517" lon="6.45405">
        <ele>207.9</ele>
        <time>2015-03-28T14:53:13Z</time>
      </trkpt>
      <trkpt lat="43.50524" lon="6.45406">
        <ele>208.3</ele>
        <time>2015-03-28T14:53:18Z</time>
      </trkpt>
      <trkpt lat="43.50533" lon="6.45407">
        <ele>208.8</ele>
        <time>2015-03-28T14:53:25Z</time>
      </trkpt>
      <trkpt lat="43.50542" lon="6.45408">
        <ele>209.5</ele>
        <time>2015-03-28T14:53:31Z</time>
      </trkpt>
      <trkpt lat="43.5055" lon="6.4541">
        <ele>208.9</ele>
        <time>2015-03-28T14:53:37Z</time>
      </trkpt>
      <trkpt lat="43.50551" lon="6.4541">
        <ele>208.8</ele>
        <time>2015-03-28T14:53:38Z</time>
      </trkpt>
      <trkpt lat="43.50566" lon="6.45403">
        <ele>209.5</ele>
        <time>2015-03-28T14:53:53Z</time>
      </trkpt>
      <trkpt lat="43.50573" lon="6.45398">
        <ele>209.3</ele>
        <time>2015-03-28T14:54:00Z</time>
      </trkpt>
      <trkpt lat="43.50582" lon="6.45394">
        <ele>209.6</ele>
        <time>2015-03-28T14:54:08Z</time>
      </trkpt>
      <trkpt lat="43.5059" lon="6.4539">
        <ele>210.4</ele>
        <time>2015-03-28T14:54:16Z</time>
      </trkpt>
      <trkpt lat="43.50597" lon="6.45386">
        <ele>210.9</ele>
        <time>2015-03-28T14:54:26Z</time>
      </trkpt>
      <trkpt lat="43.50606" lon="6.45383">
        <ele>212.1</ele>
        <time>2015-03-28T14:54:34Z</time>
      </trkpt>
      <trkpt lat="43.50614" lon="6.4538">
        <ele>211.8</ele>
        <time>2015-03-28T14:54:40Z</time>
      </trkpt>
      <trkpt lat="43.50616" lon="6.4538">
        <ele>212</ele>
        <time>2015-03-28T14:54:41Z</time>
      </trkpt>
      <trkpt lat="43.5063" lon="6.45382">
        <ele>211.6</ele>
        <time>2015-03-28T14:54:51Z</time>
      </trkpt>
      <trkpt lat="43.50638" lon="6.45382">
        <ele>211.5</ele>
        <time>2015-03-28T14:54:56Z</time>
      </trkpt>
      <trkpt lat="43.50647" lon="6.45381">
        <ele>212.7</ele>
        <time>2015-03-28T14:55:03Z</time>
      </trkpt>
      <trkpt lat="43.50655" lon="6.45379">
        <ele>212.9</ele>
        <time>2015-03-28T14:55:09Z</time>
      </trkpt>
      <trkpt lat="43.50664" lon="6.45375">
        <ele>213.7</ele>
        <time>2015-03-28T14:55:15Z</time>
      </trkpt>
      <trkpt lat="43.50672" lon="6.4537">
        <ele>213.2</ele>
        <time>2015-03-28T14:55:22Z</time>
      </trkpt>
      <trkpt lat="43.50679" lon="6.45366">
        <ele>213.8</ele>
        <time>2015-03-28T14:55:28Z</time>
      </trkpt>
      <trkpt lat="43.50688" lon="6.45365">
        <ele>214</ele>
        <time>2015-03-28T14:55:36Z</time>
      </trkpt>
      <trkpt lat="43.50696" lon="6.45364">
        <ele>214.5</ele>
        <time>2015-03-28T14:55:42Z</time>
      </trkpt>
      <trkpt lat="43.50697" lon="6.45364">
        <ele>214.5</ele>
        <time>2015-03-28T14:55:43Z</time>
      </trkpt>
      <trkpt lat="43.50712" lon="6.45365">
        <ele>214.3</ele>
        <time>2015-03-28T14:55:54Z</time>
      </trkpt>
      <trkpt lat="43.5072" lon="6.45368">
        <ele>214.9</ele>
        <time>2015-03-28T14:56:00Z</time>
      </trkpt>
      <trkpt lat="43.50728" lon="6.45369">
        <ele>215.1</ele>
        <time>2015-03-28T14:56:06Z</time>
      </trkpt>
      <trkpt lat="43.50737" lon="6.45373">
        <ele>216.1</ele>
        <time>2015-03-28T14:56:15Z</time>
      </trkpt>
      <trkpt lat="43.50744" lon="6.45377">
        <ele>216.3</ele>
        <time>2015-03-28T14:56:23Z</time>
      </trkpt>
      <trkpt lat="43.50752" lon="6.45384">
        <ele>216.6</ele>
        <time>2015-03-28T14:56:32Z</time>
      </trkpt>
      <trkpt lat="43.50758" lon="6.45389">
        <ele>216.9</ele>
        <time>2015-03-28T14:56:37Z</time>
      </trkpt>
      <trkpt lat="43.50766" lon="6.45393">
        <ele>217</ele>
        <time>2015-03-28T14:56:42Z</time>
      </trkpt>
      <trkpt lat="43.50774" lon="6.45392">
        <ele>217.8</ele>
        <time>2015-03-28T14:56:48Z</time>
      </trkpt>
      <trkpt lat="43.50776" lon="6.45393">
        <ele>217.6</ele>
        <time>2015-03-28T14:56:49Z</time>
      </trkpt>
      <trkpt lat="43.5079" lon="6.45393">
        <ele>218.2</ele>
        <time>2015-03-28T14:57:00Z</time>
      </trkpt>
      <trkpt lat="43.50799" lon="6.4539">
        <ele>217.8</ele>
        <time>2015-03-28T14:57:07Z</time>
      </trkpt>
      <trkpt lat="43.50807" lon="6.45388">
        <ele>218.8</ele>
        <time>2015-03-28T14:57:14Z</time>
      </trkpt>
      <trkpt lat="43.50815" lon="6.45386">
        <ele>217.2</ele>
        <time>2015-03-28T14:57:21Z</time>
      </trkpt>
      <trkpt lat="43.50823" lon="6.45383">
        <ele>218.9</ele>
        <time>2015-03-28T14:57:28Z</time>
      </trkpt>
      <trkpt lat="43.50832" lon="6.45381">
        <ele>218.8</ele>
        <time>2015-03-28T14:57:35Z</time>
      </trkpt>
      <trkpt lat="43.5084" lon="6.45378">
        <ele>219.8</ele>
        <time>2015-03-28T14:57:43Z</time>
      </trkpt>
      <trkpt lat="43.50847" lon="6.45374">
        <ele>220</ele>
        <time>2015-03-28T14:57:49Z</time>
      </trkpt>
      <trkpt lat="43.50848" lon="6.45373">
        <ele>220.2</ele>
        <time>2015-03-28T14:57:50Z</time>
      </trkpt>
      <trkpt lat="43.50862" lon="6.45362">
        <ele>221.6</ele>
        <time>2015-03-28T14:58:03Z</time>
      </trkpt>
      <trkpt lat="43.5087" lon="6.45358">
        <ele>220.7</ele>
        <time>2015-03-28T14:58:10Z</time>
      </trkpt>
      <trkpt lat="43.50878" lon="6.45353">
        <ele>221.1</ele>
        <time>2015-03-28T14:58:17Z</time>
      </trkpt>
      <trkpt lat="43.50886" lon="6.45348">
        <ele>220</ele>
        <time>2015-03-28T14:58:24Z</time>
      </trkpt>
      <trkpt lat="43.50894" lon="6.45345">
        <ele>221.1</ele>
        <time>2015-03-28T14:58:31Z</time>
      </trkpt>
      <trkpt lat="43.50902" lon="6.45344">
        <ele>221.6</ele>
        <time>2015-03-28T14:58:39Z</time>
      </trkpt>
      <trkpt lat="43.5091" lon="6.45342">
        <ele>221.1</ele>
        <time>2015-03-28T14:58:46Z</time>
      </trkpt>
      <trkpt lat="43.50919" lon="6.45339">
        <ele>221.6</ele>
        <time>2015-03-28T14:58:52Z</time>
      </trkpt>
      <trkpt lat="43.50919" lon="6.45339">
        <ele>221.5</ele>
        <time>2015-03-28T14:58:53Z</time>
      </trkpt>
      <trkpt lat="43.50936" lon="6.45339">
        <ele>222.7</ele>
        <time>2015-03-28T14:59:15Z</time>
      </trkpt>
      <trkpt lat="43.50943" lon="6.45345">
        <ele>224.8</ele>
        <time>2015-03-28T14:59:23Z</time>
      </trkpt>
      <trkpt lat="43.50951" lon="6.45349">
        <ele>225.5</ele>
        <time>2015-03-28T14:59:32Z</time>
      </trkpt>
      <trkpt lat="43.50959" lon="6.45353">
        <ele>225.5</ele>
        <time>2015-03-28T14:59:40Z</time>
      </trkpt>
      <trkpt lat="43.50966" lon="6.4536">
        <ele>226.1</ele>
        <time>2015-03-28T14:59:48Z</time>
      </trkpt>
      <trkpt lat="43.50973" lon="6.45366">
        <ele>227.6</ele>
        <time>2015-03-28T14:59:55Z</time>
      </trkpt>
      <trkpt lat="43.50974" lon="6.45367">
        <ele>227.5</ele>
        <time>2015-03-28T14:59:56Z</time>
      </trkpt>
      <trkpt lat="43.50987" lon="6.45378">
        <ele>227.9</ele>
        <time>2015-03-28T15:00:10Z</time>
      </trkpt>
      <trkpt lat="43.50994" lon="6.45385">
        <ele>229.1</ele>
        <time>2015-03-28T15:00:19Z</time>
      </trkpt>
      <trkpt lat="43.51001" lon="6.45392">
        <ele>229.9</ele>
        <time>2015-03-28T15:00:27Z</time>
      </trkpt>
      <trkpt lat="43.51007" lon="6.45399">
        <ele>230.3</ele>
        <time>2015-03-28T15:00:35Z</time>
      </trkpt>
      <trkpt lat="43.51013" lon="6.45407">
        <ele>232.3</ele>
        <time>2015-03-28T15:00:45Z</time>
      </trkpt>
      <trkpt lat="43.51019" lon="6.45415">
        <ele>232.5</ele>
        <time>2015-03-28T15:00:51Z</time>
      </trkpt>
      <trkpt lat="43.51025" lon="6.45424">
        <ele>233.4</ele>
        <time>2015-03-28T15:00:58Z</time>
      </trkpt>
      <trkpt lat="43.51026" lon="6.45425">
        <ele>233.1</ele>
        <time>2015-03-28T15:00:59Z</time>
      </trkpt>
      <trkpt lat="43.51036" lon="6.45442">
        <ele>233.9</ele>
        <time>2015-03-28T15:01:13Z</time>
      </trkpt>
      <trkpt lat="43.51042" lon="6.4545">
        <ele>234.2</ele>
        <time>2015-03-28T15:01:21Z</time>
      </trkpt>
      <trkpt lat="43.51048" lon="6.45458">
        <ele>235.2</ele>
        <time>2015-03-28T15:01:28Z</time>
      </trkpt>
      <trkpt lat="43.51055" lon="6.45466">
        <ele>234.5</ele>
        <time>2015-03-28T15:01:35Z</time>
      </trkpt>
      <trkpt lat="43.51061" lon="6.45473">
        <ele>235.2</ele>
        <time>2015-03-28T15:01:42Z</time>
      </trkpt>
      <trkpt lat="43.51068" lon="6.45481">
        <ele>236.2</ele>
        <time>2015-03-28T15:01:50Z</time>
      </trkpt>
      <trkpt lat="43.51076" lon="6.45485">
        <ele>237.1</ele>
        <time>2015-03-28T15:01:58Z</time>
      </trkpt>
      <trkpt lat="43.51082" lon="6.45492">
        <ele>237.2</ele>
        <time>2015-03-28T15:02:03Z</time>
      </trkpt>
      <trkpt lat="43.51083" lon="6.45493">
        <ele>237.2</ele>
        <time>2015-03-28T15:02:04Z</time>
      </trkpt>
      <trkpt lat="43.51098" lon="6.455">
        <ele>238.7</ele>
        <time>2015-03-28T15:02:19Z</time>
      </trkpt>
      <trkpt lat="43.51106" lon="6.45504">
        <ele>241</ele>
        <time>2015-03-28T15:02:28Z</time>
      </trkpt>
      <trkpt lat="43.51114" lon="6.4551">
        <ele>241.1</ele>
        <time>2015-03-28T15:02:35Z</time>
      </trkpt>
      <trkpt lat="43.51122" lon="6.45515">
        <ele>242</ele>
        <time>2015-03-28T15:02:45Z</time>
      </trkpt>
      <trkpt lat="43.51129" lon="6.45521">
        <ele>242.7</ele>
        <time>2015-03-28T15:02:54Z</time>
      </trkpt>
      <trkpt lat="43.51136" lon="6.45526">
        <ele>244.4</ele>
        <time>2015-03-28T15:03:03Z</time>
      </trkpt>
      <trkpt lat="43.51144" lon="6.45532">
        <ele>245.9</ele>
        <time>2015-03-28T15:03:10Z</time>
      </trkpt>
      <trkpt lat="43.51145" lon="6.45533">
        <ele>246.1</ele>
        <time>2015-03-28T15:03:11Z</time>
      </trkpt>
      <trkpt lat="43.51158" lon="6.45542">
        <ele>247.3</ele>
        <time>2015-03-28T15:03:27Z</time>
      </trkpt>
      <trkpt lat="43.51164" lon="6.4555">
        <ele>247.9</ele>
        <time>2015-03-28T15:03:34Z</time>
      </trkpt>
      <trkpt lat="43.5117" lon="6.45558">
        <ele>248.1</ele>
        <time>2015-03-28T15:03:41Z</time>
      </trkpt>
      <trkpt lat="43.51176" lon="6.45566">
        <ele>248.7</ele>
        <time>2015-03-28T15:03:50Z</time>
      </trkpt>
      <trkpt lat="43.51181" lon="6.45576">
        <ele>249.7</ele>
        <time>2015-03-28T15:03:58Z</time>
      </trkpt>
      <trkpt lat="43.51184" lon="6.45587">
        <ele>250.9</ele>
        <time>2015-03-28T15:04:06Z</time>
      </trkpt>
      <trkpt lat="43.51189" lon="6.45597">
        <ele>251.5</ele>
        <time>2015-03-28T15:04:15Z</time>
      </trkpt>
      <trkpt lat="43.51189" lon="6.45598">
        <ele>251.4</ele>
        <time>2015-03-28T15:04:16Z</time>
      </trkpt>
      <trkpt lat="43.51196" lon="6.45618">
        <ele>252.8</ele>
        <time>2015-03-28T15:04:32Z</time>
      </trkpt>
      <trkpt lat="43.51199" lon="6.4563">
        <ele>255.1</ele>
        <time>2015-03-28T15:04:40Z</time>
      </trkpt>
      <trkpt lat="43.51201" lon="6.4564">
        <ele>254.9</ele>
        <time>2015-03-28T15:04:50Z</time>
      </trkpt>
      <trkpt lat="43.51201" lon="6.45652">
        <ele>255.9</ele>
        <time>2015-03-28T15:04:59Z</time>
      </trkpt>
      <trkpt lat="43.512" lon="6.45663">
        <ele>258.6</ele>
        <time>2015-03-28T15:05:07Z</time>
      </trkpt>
      <trkpt lat="43.51199" lon="6.45674">
        <ele>258.5</ele>
        <time>2015-03-28T15:05:15Z</time>
      </trkpt>
      <trkpt lat="43.51198" lon="6.45686">
        <ele>260.3</ele>
        <time>2015-03-28T15:05:23Z</time>
      </trkpt>
      <trkpt lat="43.51198" lon="6.45687">
        <ele>260.5</ele>
        <time>2015-03-28T15:05:24Z</time>
      </trkpt>
      <trkpt lat="43.51197" lon="6.4571">
        <ele>262</ele>
        <time>2015-03-28T15:05:41Z</time>
      </trkpt>
      <trkpt lat="43.51196" lon="6.45722">
        <ele>262.3</ele>
        <time>2015-03-28T15:06:16Z</time>
      </trkpt>
      <trkpt lat="43.51197" lon="6.45733">
        <ele>264.9</ele>
        <time>2015-03-28T15:08:44Z</time>
      </trkpt>
      <trkpt lat="43.51197" lon="6.45735">
        <ele>264.9</ele>
        <time>2015-03-28T15:08:45Z</time>
      </trkpt>
      <trkpt lat="43.51193" lon="6.45755">
        <ele>265.2</ele>
        <time>2015-03-28T15:09:02Z</time>
      </trkpt>
      <trkpt lat="43.51192" lon="6.45767">
        <ele>264.7</ele>
        <time>2015-03-28T15:09:13Z</time>
      </trkpt>
      <trkpt lat="43.51193" lon="6.45779">
        <ele>265.5</ele>
        <time>2015-03-28T15:09:34Z</time>
      </trkpt>
      <trkpt lat="43.51194" lon="6.45791">
        <ele>266.6</ele>
        <time>2015-03-28T15:09:51Z</time>
      </trkpt>
      <trkpt lat="43.51194" lon="6.45792">
        <ele>266.4</ele>
        <time>2015-03-28T15:09:52Z</time>
      </trkpt>
      <trkpt lat="43.51199" lon="6.45812">
        <ele>266.9</ele>
        <time>2015-03-28T15:10:07Z</time>
      </trkpt>
      <trkpt lat="43.51201" lon="6.45823">
        <ele>267.3</ele>
        <time>2015-03-28T15:10:28Z</time>
      </trkpt>
      <trkpt lat="43.51206" lon="6.45832">
        <ele>269.2</ele>
        <time>2015-03-28T15:10:39Z</time>
      </trkpt>
      <trkpt lat="43.51213" lon="6.45839">
        <ele>269.2</ele>
        <time>2015-03-28T15:10:47Z</time>
      </trkpt>
      <trkpt lat="43.5122" lon="6.45846">
        <ele>268.7</ele>
        <time>2015-03-28T15:10:56Z</time>
      </trkpt>
      <trkpt lat="43.51221" lon="6.45846">
        <ele>268.6</ele>
        <time>2015-03-28T15:10:57Z</time>
      </trkpt>
      <trkpt lat="43.51237" lon="6.45854">
        <ele>267.8</ele>
        <time>2015-03-28T15:11:16Z</time>
      </trkpt>
      <trkpt lat="43.51244" lon="6.4586">
        <ele>267.7</ele>
        <time>2015-03-28T15:11:29Z</time>
      </trkpt>
      <trkpt lat="43.51252" lon="6.45866">
        <ele>267.6</ele>
        <time>2015-03-28T15:11:40Z</time>
      </trkpt>
      <trkpt lat="43.51259" lon="6.45873">
        <ele>265.5</ele>
        <time>2015-03-28T15:11:51Z</time>
      </trkpt>
      <trkpt lat="43.51264" lon="6.45883">
        <ele>264.3</ele>
        <time>2015-03-28T15:12:01Z</time>
      </trkpt>
      <trkpt lat="43.51264" lon="6.45884">
        <ele>264.6</ele>
        <time>2015-03-28T15:12:02Z</time>
      </trkpt>
      <trkpt lat="43.51276" lon="6.45897">
        <ele>263.9</ele>
        <time>2015-03-28T15:12:15Z</time>
      </trkpt>
      <trkpt lat="43.51283" lon="6.45905">
        <ele>263.9</ele>
        <time>2015-03-28T15:12:23Z</time>
      </trkpt>
      <trkpt lat="43.5129" lon="6.45912">
        <ele>263.4</ele>
        <time>2015-03-28T15:12:30Z</time>
      </trkpt>
      <trkpt lat="43.51297" lon="6.4592">
        <ele>263.7</ele>
        <time>2015-03-28T15:12:38Z</time>
      </trkpt>
      <trkpt lat="43.51303" lon="6.45928">
        <ele>263.6</ele>
        <time>2015-03-28T15:12:53Z</time>
      </trkpt>
      <trkpt lat="43.51308" lon="6.45938">
        <ele>264.9</ele>
        <time>2015-03-28T15:13:01Z</time>
      </trkpt>
      <trkpt lat="43.51312" lon="6.45949">
        <ele>263.2</ele>
        <time>2015-03-28T15:13:09Z</time>
      </trkpt>
      <trkpt lat="43.51312" lon="6.4595">
        <ele>263.8</ele>
        <time>2015-03-28T15:13:10Z</time>
      </trkpt>
      <trkpt lat="43.51315" lon="6.45972">
        <ele>264.8</ele>
        <time>2015-03-28T15:13:24Z</time>
      </trkpt>
      <trkpt lat="43.51317" lon="6.45984">
        <ele>265.9</ele>
        <time>2015-03-28T15:13:33Z</time>
      </trkpt>
      <trkpt lat="43.5132" lon="6.45995">
        <ele>265.4</ele>
        <time>2015-03-28T15:13:43Z</time>
      </trkpt>
      <trkpt lat="43.51323" lon="6.46005">
        <ele>266.1</ele>
        <time>2015-03-28T15:13:51Z</time>
      </trkpt>
      <trkpt lat="43.51325" lon="6.46017">
        <ele>267</ele>
        <time>2015-03-28T15:13:59Z</time>
      </trkpt>
      <trkpt lat="43.5133" lon="6.46026">
        <ele>266.4</ele>
        <time>2015-03-28T15:14:06Z</time>
      </trkpt>
      <trkpt lat="43.51335" lon="6.46035">
        <ele>265.6</ele>
        <time>2015-03-28T15:14:14Z</time>
      </trkpt>
      <trkpt lat="43.51336" lon="6.46036">
        <ele>265.2</ele>
        <time>2015-03-28T15:14:15Z</time>
      </trkpt>
      <trkpt lat="43.51345" lon="6.46055">
        <ele>262.2</ele>
        <time>2015-03-28T15:14:29Z</time>
      </trkpt>
      <trkpt lat="43.51349" lon="6.46065">
        <ele>262.9</ele>
        <time>2015-03-28T15:14:37Z</time>
      </trkpt>
      <trkpt lat="43.51352" lon="6.46077">
        <ele>262.7</ele>
        <time>2015-03-28T15:14:45Z</time>
      </trkpt>
      <trkpt lat="43.51355" lon="6.46088">
        <ele>262.8</ele>
        <time>2015-03-28T15:14:52Z</time>
      </trkpt>
      <trkpt lat="43.51356" lon="6.461">
        <ele>263.6</ele>
        <time>2015-03-28T15:15:00Z</time>
      </trkpt>
      <trkpt lat="43.51354" lon="6.46111">
        <ele>263.1</ele>
        <time>2015-03-28T15:15:07Z</time>
      </trkpt>
      <trkpt lat="43.51352" lon="6.46122">
        <ele>263.2</ele>
        <time>2015-03-28T15:15:15Z</time>
      </trkpt>
      <trkpt lat="43.51351" lon="6.46123">
        <ele>263.2</ele>
        <time>2015-03-28T15:15:16Z</time>
      </trkpt>
      <trkpt lat="43.51347" lon="6.46145">
        <ele>264.2</ele>
        <time>2015-03-28T15:15:28Z</time>
      </trkpt>
      <trkpt lat="43.51346" lon="6.46156">
        <ele>264.4</ele>
        <time>2015-03-28T15:15:34Z</time>
      </trkpt>
      <trkpt lat="43.51345" lon="6.46168">
        <ele>264.8</ele>
        <time>2015-03-28T15:15:41Z</time>
      </trkpt>
      <trkpt lat="43.51344" lon="6.46179">
        <ele>265.2</ele>
        <time>2015-03-28T15:15:48Z</time>
      </trkpt>
      <trkpt lat="43.51342" lon="6.4619">
        <ele>266.5</ele>
        <time>2015-03-28T15:15:55Z</time>
      </trkpt>
      <trkpt lat="43.5134" lon="6.462">
        <ele>266.8</ele>
        <time>2015-03-28T15:16:03Z</time>
      </trkpt>
      <trkpt lat="43.5134" lon="6.46212">
        <ele>266.2</ele>
        <time>2015-03-28T15:16:10Z</time>
      </trkpt>
      <trkpt lat="43.51339" lon="6.46223">
        <ele>265.8</ele>
        <time>2015-03-28T15:16:16Z</time>
      </trkpt>
      <trkpt lat="43.51339" lon="6.46225">
        <ele>265.2</ele>
        <time>2015-03-28T15:16:17Z</time>
      </trkpt>
      <trkpt lat="43.51338" lon="6.46246">
        <ele>265.9</ele>
        <time>2015-03-28T15:16:32Z</time>
      </trkpt>
      <trkpt lat="43.51337" lon="6.46258">
        <ele>264.8</ele>
        <time>2015-03-28T15:16:40Z</time>
      </trkpt>
      <trkpt lat="43.51337" lon="6.4627">
        <ele>265.5</ele>
        <time>2015-03-28T15:16:48Z</time>
      </trkpt>
      <trkpt lat="43.51335" lon="6.46281">
        <ele>263.7</ele>
        <time>2015-03-28T15:16:54Z</time>
      </trkpt>
      <trkpt lat="43.51333" lon="6.46293">
        <ele>263.8</ele>
        <time>2015-03-28T15:17:01Z</time>
      </trkpt>
      <trkpt lat="43.5133" lon="6.46304">
        <ele>262.5</ele>
        <time>2015-03-28T15:17:08Z</time>
      </trkpt>
      <trkpt lat="43.51328" lon="6.46315">
        <ele>261.7</ele>
        <time>2015-03-28T15:17:15Z</time>
      </trkpt>
      <trkpt lat="43.51325" lon="6.46326">
        <ele>260.6</ele>
        <time>2015-03-28T15:17:22Z</time>
      </trkpt>
      <trkpt lat="43.51324" lon="6.46327">
        <ele>259.8</ele>
        <time>2015-03-28T15:17:23Z</time>
      </trkpt>
      <trkpt lat="43.51317" lon="6.46348">
        <ele>258.1</ele>
        <time>2015-03-28T15:17:37Z</time>
      </trkpt>
      <trkpt lat="43.51314" lon="6.46359">
        <ele>257.3</ele>
        <time>2015-03-28T15:17:46Z</time>
      </trkpt>
      <trkpt lat="43.51313" lon="6.46371">
        <ele>256.3</ele>
        <time>2015-03-28T15:17:54Z</time>
      </trkpt>
      <trkpt lat="43.51313" lon="6.46383">
        <ele>256.1</ele>
        <time>2015-03-28T15:18:01Z</time>
      </trkpt>
      <trkpt lat="43.51312" lon="6.46394">
        <ele>255.4</ele>
        <time>2015-03-28T15:18:06Z</time>
      </trkpt>
      <trkpt lat="43.5131" lon="6.46405">
        <ele>255.6</ele>
        <time>2015-03-28T15:18:12Z</time>
      </trkpt>
      <trkpt lat="43.51309" lon="6.46416">
        <ele>254.9</ele>
        <time>2015-03-28T15:18:19Z</time>
      </trkpt>
      <trkpt lat="43.51307" lon="6.46427">
        <ele>255.5</ele>
        <time>2015-03-28T15:18:26Z</time>
      </trkpt>
      <trkpt lat="43.51307" lon="6.46428">
        <ele>255.5</ele>
        <time>2015-03-28T15:18:27Z</time>
      </trkpt>
      <trkpt lat="43.5131" lon="6.4645">
        <ele>254.3</ele>
        <time>2015-03-28T15:18:43Z</time>
      </trkpt>
      <trkpt lat="43.51315" lon="6.4646">
        <ele>253.2</ele>
        <time>2015-03-28T15:18:54Z</time>
      </trkpt>
      <trkpt lat="43.5132" lon="6.46469">
        <ele>252.7</ele>
        <time>2015-03-28T15:19:03Z</time>
      </trkpt>
      <trkpt lat="43.51327" lon="6.46477">
        <ele>250.6</ele>
        <time>2015-03-28T15:19:10Z</time>
      </trkpt>
      <trkpt lat="43.51334" lon="6.46482">
        <ele>249.9</ele>
        <time>2015-03-28T15:19:17Z</time>
      </trkpt>
      <trkpt lat="43.51342" lon="6.46486">
        <ele>248.6</ele>
        <time>2015-03-28T15:19:25Z</time>
      </trkpt>
      <trkpt lat="43.5135" lon="6.46485">
        <ele>247.9</ele>
        <time>2015-03-28T15:19:32Z</time>
      </trkpt>
      <trkpt lat="43.51351" lon="6.46484">
        <ele>247.7</ele>
        <time>2015-03-28T15:19:33Z</time>
      </trkpt>
      <trkpt lat="43.51364" lon="6.46471">
        <ele>244.4</ele>
        <time>2015-03-28T15:19:50Z</time>
      </trkpt>
      <trkpt lat="43.5137" lon="6.46462">
        <ele>242.5</ele>
        <time>2015-03-28T15:20:01Z</time>
      </trkpt>
      <trkpt lat="43.51377" lon="6.46456">
        <ele>239</ele>
        <time>2015-03-28T15:20:11Z</time>
      </trkpt>
      <trkpt lat="43.51384" lon="6.46451">
        <ele>236.8</ele>
        <time>2015-03-28T15:20:18Z</time>
      </trkpt>
      <trkpt lat="43.51392" lon="6.46447">
        <ele>235.7</ele>
        <time>2015-03-28T15:20:26Z</time>
      </trkpt>
      <trkpt lat="43.514" lon="6.46442">
        <ele>234</ele>
        <time>2015-03-28T15:20:34Z</time>
      </trkpt>
      <trkpt lat="43.51401" lon="6.46441">
        <ele>233.2</ele>
        <time>2015-03-28T15:20:35Z</time>
      </trkpt>
      <trkpt lat="43.51415" lon="6.46433">
        <ele>231.2</ele>
        <time>2015-03-28T15:20:53Z</time>
      </trkpt>
      <trkpt lat="43.51424" lon="6.46435">
        <ele>231.7</ele>
        <time>2015-03-28T15:21:01Z</time>
      </trkpt>
      <trkpt lat="43.51432" lon="6.46437">
        <ele>231.1</ele>
        <time>2015-03-28T15:21:09Z</time>
      </trkpt>
      <trkpt lat="43.51439" lon="6.46438">
        <ele>230.9</ele>
        <time>2015-03-28T15:21:15Z</time>
      </trkpt>
      <trkpt lat="43.51448" lon="6.46439">
        <ele>230</ele>
        <time>2015-03-28T15:21:22Z</time>
      </trkpt>
      <trkpt lat="43.51456" lon="6.46444">
        <ele>230.2</ele>
        <time>2015-03-28T15:21:29Z</time>
      </trkpt>
      <trkpt lat="43.51464" lon="6.46442">
        <ele>229.9</ele>
        <time>2015-03-28T15:21:37Z</time>
      </trkpt>
      <trkpt lat="43.51465" lon="6.46442">
        <ele>230</ele>
        <time>2015-03-28T15:21:38Z</time>
      </trkpt>
      <trkpt lat="43.51479" lon="6.4645">
        <ele>226.9</ele>
        <time>2015-03-28T15:21:49Z</time>
      </trkpt>
      <trkpt lat="43.51486" lon="6.46454">
        <ele>227.1</ele>
        <time>2015-03-28T15:21:55Z</time>
      </trkpt>
      <trkpt lat="43.51494" lon="6.46458">
        <ele>226.4</ele>
        <time>2015-03-28T15:22:01Z</time>
      </trkpt>
      <trkpt lat="43.51502" lon="6.46464">
        <ele>225.3</ele>
        <time>2015-03-28T15:22:09Z</time>
      </trkpt>
      <trkpt lat="43.51509" lon="6.46471">
        <ele>225.9</ele>
        <time>2015-03-28T15:22:15Z</time>
      </trkpt>
      <trkpt lat="43.51515" lon="6.46479">
        <ele>224.2</ele>
        <time>2015-03-28T15:22:21Z</time>
      </trkpt>
      <trkpt lat="43.51521" lon="6.46487">
        <ele>222.7</ele>
        <time>2015-03-28T15:22:27Z</time>
      </trkpt>
      <trkpt lat="43.5153" lon="6.4649">
        <ele>221.9</ele>
        <time>2015-03-28T15:22:36Z</time>
      </trkpt>
      <trkpt lat="43.51538" lon="6.46493">
        <ele>221.7</ele>
        <time>2015-03-28T15:22:46Z</time>
      </trkpt>
      <trkpt lat="43.51539" lon="6.46494">
        <ele>221.8</ele>
        <time>2015-03-28T15:22:47Z</time>
      </trkpt>
      <trkpt lat="43.5155" lon="6.46508">
        <ele>220.3</ele>
        <time>2015-03-28T15:23:01Z</time>
      </trkpt>
      <trkpt lat="43.51556" lon="6.46515">
        <ele>219.6</ele>
        <time>2015-03-28T15:23:07Z</time>
      </trkpt>
      <trkpt lat="43.51563" lon="6.46522">
        <ele>218</ele>
        <time>2015-03-28T15:23:15Z</time>
      </trkpt>
      <trkpt lat="43.51572" lon="6.46525">
        <ele>215.2</ele>
        <time>2015-03-28T15:23:25Z</time>
      </trkpt>
      <trkpt lat="43.51579" lon="6.46532">
        <ele>214.4</ele>
        <time>2015-03-28T15:23:32Z</time>
      </trkpt>
      <trkpt lat="43.51585" lon="6.4654">
        <ele>213.5</ele>
        <time>2015-03-28T15:23:38Z</time>
      </trkpt>
      <trkpt lat="43.51592" lon="6.46548">
        <ele>213.1</ele>
        <time>2015-03-28T15:23:44Z</time>
      </trkpt>
      <trkpt lat="43.51599" lon="6.46555">
        <ele>212.1</ele>
        <time>2015-03-28T15:23:51Z</time>
      </trkpt>
      <trkpt lat="43.516" lon="6.46556">
        <ele>212</ele>
        <time>2015-03-28T15:23:52Z</time>
      </trkpt>
      <trkpt lat="43.51608" lon="6.46575">
        <ele>210.2</ele>
        <time>2015-03-28T15:24:02Z</time>
      </trkpt>
      <trkpt lat="43.51614" lon="6.46581">
        <ele>209.4</ele>
        <time>2015-03-28T15:24:07Z</time>
      </trkpt>
      <trkpt lat="43.5162" lon="6.46589">
        <ele>209.1</ele>
        <time>2015-03-28T15:24:14Z</time>
      </trkpt>
      <trkpt lat="43.51626" lon="6.46598">
        <ele>207.5</ele>
        <time>2015-03-28T15:24:21Z</time>
      </trkpt>
      <trkpt lat="43.51631" lon="6.46607">
        <ele>206.4</ele>
        <time>2015-03-28T15:24:29Z</time>
      </trkpt>
      <trkpt lat="43.51635" lon="6.46618">
        <ele>204.5</ele>
        <time>2015-03-28T15:24:36Z</time>
      </trkpt>
      <trkpt lat="43.5164" lon="6.46627">
        <ele>203.9</ele>
        <time>2015-03-28T15:24:45Z</time>
      </trkpt>
      <trkpt lat="43.51645" lon="6.46637">
        <ele>203.6</ele>
        <time>2015-03-28T15:24:52Z</time>
      </trkpt>
      <trkpt lat="43.51646" lon="6.46639">
        <ele>203.6</ele>
        <time>2015-03-28T15:24:53Z</time>
      </trkpt>
      <trkpt lat="43.51653" lon="6.46659">
        <ele>201.9</ele>
        <time>2015-03-28T15:25:06Z</time>
      </trkpt>
      <trkpt lat="43.51657" lon="6.4667">
        <ele>201.1</ele>
        <time>2015-03-28T15:25:13Z</time>
      </trkpt>
      <trkpt lat="43.51662" lon="6.46679">
        <ele>200.9</ele>
        <time>2015-03-28T15:25:19Z</time>
      </trkpt>
      <trkpt lat="43.51667" lon="6.46688">
        <ele>200.9</ele>
        <time>2015-03-28T15:25:26Z</time>
      </trkpt>
      <trkpt lat="43.5167" lon="6.46698">
        <ele>199.6</ele>
        <time>2015-03-28T15:25:33Z</time>
      </trkpt>
      <trkpt lat="43.51676" lon="6.46707">
        <ele>198.2</ele>
        <time>2015-03-28T15:25:41Z</time>
      </trkpt>
      <trkpt lat="43.51682" lon="6.46716">
        <ele>196.2</ele>
        <time>2015-03-28T15:25:50Z</time>
      </trkpt>
      <trkpt lat="43.51687" lon="6.46726">
        <ele>195</ele>
        <time>2015-03-28T15:26:02Z</time>
      </trkpt>
      <trkpt lat="43.51687" lon="6.46727">
        <ele>194.8</ele>
        <time>2015-03-28T15:26:03Z</time>
      </trkpt>
      <trkpt lat="43.51694" lon="6.46747">
        <ele>192.1</ele>
        <time>2015-03-28T15:26:20Z</time>
      </trkpt>
      <trkpt lat="43.51698" lon="6.46758">
        <ele>191.1</ele>
        <time>2015-03-28T15:26:33Z</time>
      </trkpt>
      <trkpt lat="43.51701" lon="6.46768">
        <ele>189.9</ele>
        <time>2015-03-28T15:26:40Z</time>
      </trkpt>
      <trkpt lat="43.51704" lon="6.46779">
        <ele>189</ele>
        <time>2015-03-28T15:26:48Z</time>
      </trkpt>
      <trkpt lat="43.51708" lon="6.46789">
        <ele>188.3</ele>
        <time>2015-03-28T15:27:32Z</time>
      </trkpt>
      <trkpt lat="43.51709" lon="6.4679">
        <ele>188.3</ele>
        <time>2015-03-28T15:27:33Z</time>
      </trkpt>
      <trkpt lat="43.51708" lon="6.46808">
        <ele>187.8</ele>
        <time>2015-03-28T15:29:09Z</time>
      </trkpt>
      <trkpt lat="43.51707" lon="6.46808">
        <ele>188.2</ele>
        <time>2015-03-28T15:29:10Z</time>
      </trkpt>
      <trkpt lat="43.51691" lon="6.46814">
        <ele>188.5</ele>
        <time>2015-03-28T15:29:34Z</time>
      </trkpt>
      <trkpt lat="43.51684" lon="6.46819">
        <ele>187.1</ele>
        <time>2015-03-28T15:29:46Z</time>
      </trkpt>
      <trkpt lat="43.51676" lon="6.46825">
        <ele>186.7</ele>
        <time>2015-03-28T15:29:56Z</time>
      </trkpt>
      <trkpt lat="43.51669" lon="6.46832">
        <ele>187.7</ele>
        <time>2015-03-28T15:30:01Z</time>
      </trkpt>
      <trkpt lat="43.51663" lon="6.4684">
        <ele>187.4</ele>
        <time>2015-03-28T15:30:07Z</time>
      </trkpt>
      <trkpt lat="43.51655" lon="6.46845">
        <ele>187.4</ele>
        <time>2015-03-28T15:30:15Z</time>
      </trkpt>
      <trkpt lat="43.51654" lon="6.46845">
        <ele>187.4</ele>
        <time>2015-03-28T15:30:16Z</time>
      </trkpt>
      <trkpt lat="43.51641" lon="6.46858">
        <ele>188</ele>
        <time>2015-03-28T15:30:34Z</time>
      </trkpt>
      <trkpt lat="43.51633" lon="6.46865">
        <ele>187.3</ele>
        <time>2015-03-28T15:30:42Z</time>
      </trkpt>
      <trkpt lat="43.51627" lon="6.46872">
        <ele>187</ele>
        <time>2015-03-28T15:30:47Z</time>
      </trkpt>
      <trkpt lat="43.51621" lon="6.46878">
        <ele>188</ele>
        <time>2015-03-28T15:30:50Z</time>
      </trkpt>
      <trkpt lat="43.51616" lon="6.46886">
        <ele>187.9</ele>
        <time>2015-03-28T15:30:55Z</time>
      </trkpt>
      <trkpt lat="43.51609" lon="6.46893">
        <ele>187.8</ele>
        <time>2015-03-28T15:31:01Z</time>
      </trkpt>
      <trkpt lat="43.51603" lon="6.469">
        <ele>187.3</ele>
        <time>2015-03-28T15:31:05Z</time>
      </trkpt>
      <trkpt lat="43.51596" lon="6.46906">
        <ele>187.6</ele>
        <time>2015-03-28T15:31:12Z</time>
      </trkpt>
      <trkpt lat="43.5159" lon="6.46913">
        <ele>187.6</ele>
        <time>2015-03-28T15:31:18Z</time>
      </trkpt>
      <trkpt lat="43.51589" lon="6.46914">
        <ele>188.1</ele>
        <time>2015-03-28T15:31:19Z</time>
      </trkpt>
      <trkpt lat="43.51578" lon="6.46927">
        <ele>187.1</ele>
        <time>2015-03-28T15:31:28Z</time>
      </trkpt>
      <trkpt lat="43.51572" lon="6.46934">
        <ele>187.9</ele>
        <time>2015-03-28T15:31:31Z</time>
      </trkpt>
      <trkpt lat="43.51566" lon="6.4694">
        <ele>187.4</ele>
        <time>2015-03-28T15:31:38Z</time>
      </trkpt>
      <trkpt lat="43.51559" lon="6.46948">
        <ele>188.4</ele>
        <time>2015-03-28T15:31:44Z</time>
      </trkpt>
      <trkpt lat="43.51553" lon="6.46955">
        <ele>187.7</ele>
        <time>2015-03-28T15:31:50Z</time>
      </trkpt>
      <trkpt lat="43.51546" lon="6.46963">
        <ele>186.9</ele>
        <time>2015-03-28T15:31:58Z</time>
      </trkpt>
      <trkpt lat="43.5154" lon="6.46972">
        <ele>186.5</ele>
        <time>2015-03-28T15:32:04Z</time>
      </trkpt>
      <trkpt lat="43.51534" lon="6.46979">
        <ele>187.5</ele>
        <time>2015-03-28T15:32:10Z</time>
      </trkpt>
      <trkpt lat="43.51529" lon="6.46987">
        <ele>187.5</ele>
        <time>2015-03-28T15:32:16Z</time>
      </trkpt>
      <trkpt lat="43.51523" lon="6.46995">
        <ele>186.6</ele>
        <time>2015-03-28T15:32:22Z</time>
      </trkpt>
      <trkpt lat="43.51522" lon="6.46996">
        <ele>187</ele>
        <time>2015-03-28T15:32:23Z</time>
      </trkpt>
      <trkpt lat="43.5151" lon="6.4701">
        <ele>186.4</ele>
        <time>2015-03-28T15:32:34Z</time>
      </trkpt>
      <trkpt lat="43.51503" lon="6.47017">
        <ele>186.7</ele>
        <time>2015-03-28T15:32:40Z</time>
      </trkpt>
      <trkpt lat="43.51497" lon="6.47024">
        <ele>186.3</ele>
        <time>2015-03-28T15:32:46Z</time>
      </trkpt>
      <trkpt lat="43.51491" lon="6.47031">
        <ele>187</ele>
        <time>2015-03-28T15:32:52Z</time>
      </trkpt>
      <trkpt lat="43.51485" lon="6.47039">
        <ele>186.5</ele>
        <time>2015-03-28T15:32:58Z</time>
      </trkpt>
      <trkpt lat="43.51479" lon="6.47046">
        <ele>185</ele>
        <time>2015-03-28T15:33:04Z</time>
      </trkpt>
      <trkpt lat="43.51472" lon="6.47054">
        <ele>186.7</ele>
        <time>2015-03-28T15:33:11Z</time>
      </trkpt>
      <trkpt lat="43.51466" lon="6.47062">
        <ele>186.3</ele>
        <time>2015-03-28T15:33:18Z</time>
      </trkpt>
      <trkpt lat="43.5146" lon="6.4707">
        <ele>186.5</ele>
        <time>2015-03-28T15:33:25Z</time>
      </trkpt>
      <trkpt lat="43.51458" lon="6.47071">
        <ele>186.7</ele>
        <time>2015-03-28T15:33:26Z</time>
      </trkpt>
      <trkpt lat="43.51447" lon="6.47084">
        <ele>188.1</ele>
        <time>2015-03-28T15:33:38Z</time>
      </trkpt>
      <trkpt lat="43.51441" lon="6.47093">
        <ele>187.3</ele>
        <time>2015-03-28T15:33:45Z</time>
      </trkpt>
      <trkpt lat="43.51434" lon="6.47101">
        <ele>185.6</ele>
        <time>2015-03-28T15:33:52Z</time>
      </trkpt>
      <trkpt lat="43.51429" lon="6.4711">
        <ele>186.2</ele>
        <time>2015-03-28T15:33:58Z</time>
      </trkpt>
      <trkpt lat="43.51423" lon="6.47119">
        <ele>187.9</ele>
        <time>2015-03-28T15:34:05Z</time>
      </trkpt>
      <trkpt lat="43.51417" lon="6.47125">
        <ele>186.4</ele>
        <time>2015-03-28T15:34:11Z</time>
      </trkpt>
      <trkpt lat="43.51411" lon="6.47133">
        <ele>186.8</ele>
        <time>2015-03-28T15:34:17Z</time>
      </trkpt>
      <trkpt lat="43.51404" lon="6.47139">
        <ele>186.2</ele>
        <time>2015-03-28T15:34:23Z</time>
      </trkpt>
      <trkpt lat="43.51397" lon="6.47146">
        <ele>185.8</ele>
        <time>2015-03-28T15:34:30Z</time>
      </trkpt>
      <trkpt lat="43.51396" lon="6.47147">
        <ele>186.3</ele>
        <time>2015-03-28T15:34:31Z</time>
      </trkpt>
      <trkpt lat="43.51384" lon="6.4716">
        <ele>186.4</ele>
        <time>2015-03-28T15:34:44Z</time>
      </trkpt>
      <trkpt lat="43.51378" lon="6.47166">
        <ele>186.8</ele>
        <time>2015-03-28T15:34:52Z</time>
      </trkpt>
      <trkpt lat="43.5137" lon="6.47173">
        <ele>186.2</ele>
        <time>2015-03-28T15:35:01Z</time>
      </trkpt>
      <trkpt lat="43.51363" lon="6.47179">
        <ele>186.6</ele>
        <time>2015-03-28T15:35:08Z</time>
      </trkpt>
      <trkpt lat="43.51357" lon="6.47188">
        <ele>185.9</ele>
        <time>2015-03-28T15:35:17Z</time>
      </trkpt>
      <trkpt lat="43.5135" lon="6.47195">
        <ele>186.3</ele>
        <time>2015-03-28T15:35:24Z</time>
      </trkpt>
      <trkpt lat="43.51345" lon="6.47203">
        <ele>186</ele>
        <time>2015-03-28T15:35:30Z</time>
      </trkpt>
      <trkpt lat="43.51338" lon="6.47209">
        <ele>187</ele>
        <time>2015-03-28T15:35:35Z</time>
      </trkpt>
      <trkpt lat="43.51337" lon="6.47211">
        <ele>186.9</ele>
        <time>2015-03-28T15:35:36Z</time>
      </trkpt>
      <trkpt lat="43.51325" lon="6.47223">
        <ele>185.4</ele>
        <time>2015-03-28T15:35:50Z</time>
      </trkpt>
      <trkpt lat="43.51318" lon="6.47228">
        <ele>185.3</ele>
        <time>2015-03-28T15:35:57Z</time>
      </trkpt>
      <trkpt lat="43.5131" lon="6.47232">
        <ele>186</ele>
        <time>2015-03-28T15:36:04Z</time>
      </trkpt>
      <trkpt lat="43.51302" lon="6.47237">
        <ele>185.3</ele>
        <time>2015-03-28T15:36:13Z</time>
      </trkpt>
      <trkpt lat="43.51294" lon="6.4724">
        <ele>185.4</ele>
        <time>2015-03-28T15:36:21Z</time>
      </trkpt>
      <trkpt lat="43.51286" lon="6.47242">
        <ele>186.9</ele>
        <time>2015-03-28T15:36:30Z</time>
      </trkpt>
      <trkpt lat="43.51279" lon="6.47249">
        <ele>186.6</ele>
        <time>2015-03-28T15:36:38Z</time>
      </trkpt>
      <trkpt lat="43.51278" lon="6.47249">
        <ele>186.5</ele>
        <time>2015-03-28T15:36:39Z</time>
      </trkpt>
      <trkpt lat="43.51264" lon="6.4726">
        <ele>185</ele>
        <time>2015-03-28T15:36:51Z</time>
      </trkpt>
      <trkpt lat="43.51257" lon="6.47265">
        <ele>184.9</ele>
        <time>2015-03-28T15:36:58Z</time>
      </trkpt>
      <trkpt lat="43.51249" lon="6.47269">
        <ele>185.8</ele>
        <time>2015-03-28T15:37:08Z</time>
      </trkpt>
      <trkpt lat="43.51242" lon="6.47274">
        <ele>186.3</ele>
        <time>2015-03-28T15:37:12Z</time>
      </trkpt>
      <trkpt lat="43.51235" lon="6.47278">
        <ele>186.2</ele>
        <time>2015-03-28T15:37:16Z</time>
      </trkpt>
      <trkpt lat="43.51227" lon="6.47283">
        <ele>186.3</ele>
        <time>2015-03-28T15:37:24Z</time>
      </trkpt>
      <trkpt lat="43.5122" lon="6.47289">
        <ele>185.9</ele>
        <time>2015-03-28T15:37:30Z</time>
      </trkpt>
      <trkpt lat="43.51212" lon="6.47293">
        <ele>186.2</ele>
        <time>2015-03-28T15:37:37Z</time>
      </trkpt>
      <trkpt lat="43.51206" lon="6.47297">
        <ele>185.7</ele>
        <time>2015-03-28T15:37:44Z</time>
      </trkpt>
      <trkpt lat="43.51204" lon="6.47299">
        <ele>185.9</ele>
        <time>2015-03-28T15:37:45Z</time>
      </trkpt>
      <trkpt lat="43.51192" lon="6.47308">
        <ele>185.5</ele>
        <time>2015-03-28T15:37:55Z</time>
      </trkpt>
      <trkpt lat="43.51186" lon="6.47313">
        <ele>186.1</ele>
        <time>2015-03-28T15:37:59Z</time>
      </trkpt>
      <trkpt lat="43.51178" lon="6.47318">
        <ele>185.4</ele>
        <time>2015-03-28T15:38:05Z</time>
      </trkpt>
      <trkpt lat="43.51171" lon="6.47324">
        <ele>184.5</ele>
        <time>2015-03-28T15:38:09Z</time>
      </trkpt>
      <trkpt lat="43.51164" lon="6.4733">
        <ele>185.5</ele>
        <time>2015-03-28T15:38:14Z</time>
      </trkpt>
      <trkpt lat="43.51156" lon="6.47335">
        <ele>185.6</ele>
        <time>2015-03-28T15:38:25Z</time>
      </trkpt>
      <trkpt lat="43.51148" lon="6.47341">
        <ele>185</ele>
        <time>2015-03-28T15:38:36Z</time>
      </trkpt>
      <trkpt lat="43.51141" lon="6.47346">
        <ele>185.8</ele>
        <time>2015-03-28T15:38:42Z</time>
      </trkpt>
      <trkpt lat="43.51133" lon="6.4735">
        <ele>185.8</ele>
        <time>2015-03-28T15:38:48Z</time>
      </trkpt>
      <trkpt lat="43.51132" lon="6.47351">
        <ele>186</ele>
        <time>2015-03-28T15:38:49Z</time>
      </trkpt>
      <trkpt lat="43.51118" lon="6.4736">
        <ele>186.5</ele>
        <time>2015-03-28T15:39:01Z</time>
      </trkpt>
      <trkpt lat="43.5111" lon="6.47364">
        <ele>186.2</ele>
        <time>2015-03-28T15:39:06Z</time>
      </trkpt>
      <trkpt lat="43.51102" lon="6.4737">
        <ele>185.7</ele>
        <time>2015-03-28T15:39:13Z</time>
      </trkpt>
      <trkpt lat="43.51095" lon="6.47373">
        <ele>184.9</ele>
        <time>2015-03-28T15:39:19Z</time>
      </trkpt>
      <trkpt lat="43.51088" lon="6.47378">
        <ele>185.2</ele>
        <time>2015-03-28T15:39:25Z</time>
      </trkpt>
      <trkpt lat="43.51081" lon="6.47383">
        <ele>185.9</ele>
        <time>2015-03-28T15:39:30Z</time>
      </trkpt>
      <trkpt lat="43.51074" lon="6.47387">
        <ele>185.9</ele>
        <time>2015-03-28T15:39:36Z</time>
      </trkpt>
      <trkpt lat="43.51067" lon="6.47392">
        <ele>185.7</ele>
        <time>2015-03-28T15:39:41Z</time>
      </trkpt>
      <trkpt lat="43.5106" lon="6.47398">
        <ele>185.8</ele>
        <time>2015-03-28T15:39:48Z</time>
      </trkpt>
      <trkpt lat="43.51053" lon="6.47404">
        <ele>186.4</ele>
        <time>2015-03-28T15:39:55Z</time>
      </trkpt>
      <trkpt lat="43.51052" lon="6.47405">
        <ele>186.4</ele>
        <time>2015-03-28T15:39:56Z</time>
      </trkpt>
      <trkpt lat="43.51038" lon="6.47415">
        <ele>186.8</ele>
        <time>2015-03-28T15:40:08Z</time>
      </trkpt>
      <trkpt lat="43.5103" lon="6.4742">
        <ele>186.3</ele>
        <time>2015-03-28T15:40:15Z</time>
      </trkpt>
      <trkpt lat="43.51022" lon="6.47424">
        <ele>185.9</ele>
        <time>2015-03-28T15:40:21Z</time>
      </trkpt>
      <trkpt lat="43.51015" lon="6.47429">
        <ele>186.7</ele>
        <time>2015-03-28T15:40:27Z</time>
      </trkpt>
      <trkpt lat="43.51008" lon="6.47435">
        <ele>185.8</ele>
        <time>2015-03-28T15:40:33Z</time>
      </trkpt>
      <trkpt lat="43.51001" lon="6.4744">
        <ele>185.9</ele>
        <time>2015-03-28T15:40:39Z</time>
      </trkpt>
      <trkpt lat="43.50993" lon="6.47445">
        <ele>186.3</ele>
        <time>2015-03-28T15:40:48Z</time>
      </trkpt>
      <trkpt lat="43.50986" lon="6.4745">
        <ele>186.6</ele>
        <time>2015-03-28T15:40:55Z</time>
      </trkpt>
      <trkpt lat="43.50979" lon="6.47456">
        <ele>186</ele>
        <time>2015-03-28T15:41:01Z</time>
      </trkpt>
      <trkpt lat="43.50978" lon="6.47456">
        <ele>186.2</ele>
        <time>2015-03-28T15:41:02Z</time>
      </trkpt>
      <trkpt lat="43.50963" lon="6.47465">
        <ele>186.4</ele>
        <time>2015-03-28T15:41:18Z</time>
      </trkpt>
      <trkpt lat="43.50955" lon="6.47468">
        <ele>186.1</ele>
        <time>2015-03-28T15:41:30Z</time>
      </trkpt>
      <trkpt lat="43.50947" lon="6.47473">
        <ele>186.2</ele>
        <time>2015-03-28T15:41:36Z</time>
      </trkpt>
      <trkpt lat="43.5094" lon="6.47476">
        <ele>186.8</ele>
        <time>2015-03-28T15:41:46Z</time>
      </trkpt>
      <trkpt lat="43.50934" lon="6.47482">
        <ele>187.1</ele>
        <time>2015-03-28T15:41:50Z</time>
      </trkpt>
      <trkpt lat="43.50927" lon="6.47487">
        <ele>186.2</ele>
        <time>2015-03-28T15:41:54Z</time>
      </trkpt>
      <trkpt lat="43.5092" lon="6.47492">
        <ele>185.4</ele>
        <time>2015-03-28T15:42:00Z</time>
      </trkpt>
      <trkpt lat="43.50913" lon="6.47498">
        <ele>185.3</ele>
        <time>2015-03-28T15:42:06Z</time>
      </trkpt>
      <trkpt lat="43.50912" lon="6.47499">
        <ele>185.3</ele>
        <time>2015-03-28T15:42:07Z</time>
      </trkpt>
      <trkpt lat="43.50898" lon="6.47512">
        <ele>185.8</ele>
        <time>2015-03-28T15:42:20Z</time>
      </trkpt>
      <trkpt lat="43.50891" lon="6.47519">
        <ele>185.7</ele>
        <time>2015-03-28T15:42:26Z</time>
      </trkpt>
      <trkpt lat="43.50884" lon="6.47525">
        <ele>185.6</ele>
        <time>2015-03-28T15:42:30Z</time>
      </trkpt>
      <trkpt lat="43.50876" lon="6.47531">
        <ele>186.2</ele>
        <time>2015-03-28T15:42:35Z</time>
      </trkpt>
      <trkpt lat="43.5087" lon="6.47538">
        <ele>185.6</ele>
        <time>2015-03-28T15:42:41Z</time>
      </trkpt>
      <trkpt lat="43.50863" lon="6.47544">
        <ele>185.3</ele>
        <time>2015-03-28T15:42:47Z</time>
      </trkpt>
      <trkpt lat="43.50857" lon="6.47551">
        <ele>185.3</ele>
        <time>2015-03-28T15:42:53Z</time>
      </trkpt>
      <trkpt lat="43.5085" lon="6.47558">
        <ele>185.3</ele>
        <time>2015-03-28T15:42:59Z</time>
      </trkpt>
      <trkpt lat="43.50843" lon="6.47566">
        <ele>185.3</ele>
        <time>2015-03-28T15:43:06Z</time>
      </trkpt>
      <trkpt lat="43.50836" lon="6.47572">
        <ele>186.4</ele>
        <time>2015-03-28T15:43:14Z</time>
      </trkpt>
      <trkpt lat="43.50835" lon="6.47573">
        <ele>186.3</ele>
        <time>2015-03-28T15:43:15Z</time>
      </trkpt>
      <trkpt lat="43.50822" lon="6.47586">
        <ele>185.7</ele>
        <time>2015-03-28T15:43:29Z</time>
      </trkpt>
      <trkpt lat="43.50815" lon="6.47594">
        <ele>185.8</ele>
        <time>2015-03-28T15:43:37Z</time>
      </trkpt>
      <trkpt lat="43.50809" lon="6.476">
        <ele>184.4</ele>
        <time>2015-03-28T15:43:42Z</time>
      </trkpt>
      <trkpt lat="43.50803" lon="6.47607">
        <ele>185</ele>
        <time>2015-03-28T15:43:47Z</time>
      </trkpt>
      <trkpt lat="43.50795" lon="6.47612">
        <ele>185.1</ele>
        <time>2015-03-28T15:43:53Z</time>
      </trkpt>
      <trkpt lat="43.50789" lon="6.4762">
        <ele>185</ele>
        <time>2015-03-28T15:43:59Z</time>
      </trkpt>
      <trkpt lat="43.50783" lon="6.47627">
        <ele>185.6</ele>
        <time>2015-03-28T15:44:06Z</time>
      </trkpt>
      <trkpt lat="43.50777" lon="6.47635">
        <ele>185.2</ele>
        <time>2015-03-28T15:44:12Z</time>
      </trkpt>
      <trkpt lat="43.5077" lon="6.47643">
        <ele>185.3</ele>
        <time>2015-03-28T15:44:19Z</time>
      </trkpt>
      <trkpt lat="43.5077" lon="6.47643">
        <ele>185.5</ele>
        <time>2015-03-28T15:44:20Z</time>
      </trkpt>
      <trkpt lat="43.50758" lon="6.47659">
        <ele>186.4</ele>
        <time>2015-03-28T15:44:35Z</time>
      </trkpt>
      <trkpt lat="43.50753" lon="6.47668">
        <ele>186.1</ele>
        <time>2015-03-28T15:44:41Z</time>
      </trkpt>
      <trkpt lat="43.50748" lon="6.47676">
        <ele>186.5</ele>
        <time>2015-03-28T15:44:47Z</time>
      </trkpt>
      <trkpt lat="43.50743" lon="6.47685">
        <ele>185.4</ele>
        <time>2015-03-28T15:44:54Z</time>
      </trkpt>
      <trkpt lat="43.50738" lon="6.47696">
        <ele>186.8</ele>
        <time>2015-03-28T15:45:01Z</time>
      </trkpt>
      <trkpt lat="43.50733" lon="6.47705">
        <ele>185.8</ele>
        <time>2015-03-28T15:45:09Z</time>
      </trkpt>
      <trkpt lat="43.50729" lon="6.47715">
        <ele>185.6</ele>
        <time>2015-03-28T15:45:17Z</time>
      </trkpt>
      <trkpt lat="43.50725" lon="6.47726">
        <ele>186.1</ele>
        <time>2015-03-28T15:45:34Z</time>
      </trkpt>
      <trkpt lat="43.50724" lon="6.47727">
        <ele>186</ele>
        <time>2015-03-28T15:45:35Z</time>
      </trkpt>
      <trkpt lat="43.50714" lon="6.47742">
        <ele>186.4</ele>
        <time>2015-03-28T15:45:46Z</time>
      </trkpt>
      <trkpt lat="43.50709" lon="6.4775">
        <ele>187.2</ele>
        <time>2015-03-28T15:45:51Z</time>
      </trkpt>
      <trkpt lat="43.50703" lon="6.47758">
        <ele>187</ele>
        <time>2015-03-28T15:45:56Z</time>
      </trkpt>
      <trkpt lat="43.50698" lon="6.47766">
        <ele>186.3</ele>
        <time>2015-03-28T15:46:01Z</time>
      </trkpt>
      <trkpt lat="43.50693" lon="6.47776">
        <ele>186.2</ele>
        <time>2015-03-28T15:46:08Z</time>
      </trkpt>
      <trkpt lat="43.50688" lon="6.47785">
        <ele>187</ele>
        <time>2015-03-28T15:46:15Z</time>
      </trkpt>
      <trkpt lat="43.50688" lon="6.47797">
        <ele>187.3</ele>
        <time>2015-03-28T15:46:27Z</time>
      </trkpt>
      <trkpt lat="43.50686" lon="6.47808">
        <ele>185.9</ele>
        <time>2015-03-28T15:46:35Z</time>
      </trkpt>
      <trkpt lat="43.50686" lon="6.4781">
        <ele>186.1</ele>
        <time>2015-03-28T15:46:36Z</time>
      </trkpt>
      <trkpt lat="43.50675" lon="6.47827">
        <ele>186.4</ele>
        <time>2015-03-28T15:47:37Z</time>
      </trkpt>
      <trkpt lat="43.50674" lon="6.47827">
        <ele>186.5</ele>
        <time>2015-03-28T15:47:38Z</time>
      </trkpt>
      <trkpt lat="43.50666" lon="6.47847">
        <ele>186.8</ele>
        <time>2015-03-28T15:48:11Z</time>
      </trkpt>
      <trkpt lat="43.50664" lon="6.47858">
        <ele>188.6</ele>
        <time>2015-03-28T15:48:21Z</time>
      </trkpt>
      <trkpt lat="43.50661" lon="6.47868">
        <ele>188.1</ele>
        <time>2015-03-28T15:48:26Z</time>
      </trkpt>
      <trkpt lat="43.50654" lon="6.47874">
        <ele>187.8</ele>
        <time>2015-03-28T15:48:31Z</time>
      </trkpt>
      <trkpt lat="43.50646" lon="6.47879">
        <ele>187.3</ele>
        <time>2015-03-28T15:48:36Z</time>
      </trkpt>
      <trkpt lat="43.50639" lon="6.47884">
        <ele>187.8</ele>
        <time>2015-03-28T15:48:45Z</time>
      </trkpt>
      <trkpt lat="43.50638" lon="6.47885">
        <ele>188</ele>
        <time>2015-03-28T15:48:46Z</time>
      </trkpt>
      <trkpt lat="43.5063" lon="6.47902">
        <ele>188.1</ele>
        <time>2015-03-28T15:49:11Z</time>
      </trkpt>
      <trkpt lat="43.50626" lon="6.47911">
        <ele>188.1</ele>
        <time>2015-03-28T15:49:17Z</time>
      </trkpt>
      <trkpt lat="43.50622" lon="6.47921">
        <ele>187.5</ele>
        <time>2015-03-28T15:49:23Z</time>
      </trkpt>
      <trkpt lat="43.50619" lon="6.47932">
        <ele>188.3</ele>
        <time>2015-03-28T15:49:30Z</time>
      </trkpt>
      <trkpt lat="43.50615" lon="6.47942">
        <ele>186.9</ele>
        <time>2015-03-28T15:49:38Z</time>
      </trkpt>
      <trkpt lat="43.50608" lon="6.47951">
        <ele>188.4</ele>
        <time>2015-03-28T15:49:45Z</time>
      </trkpt>
      <trkpt lat="43.50603" lon="6.47958">
        <ele>188.5</ele>
        <time>2015-03-28T15:49:51Z</time>
      </trkpt>
      <trkpt lat="43.50602" lon="6.4796">
        <ele>188</ele>
        <time>2015-03-28T15:49:52Z</time>
      </trkpt>
      <trkpt lat="43.50594" lon="6.47978">
        <ele>187.4</ele>
        <time>2015-03-28T15:50:04Z</time>
      </trkpt>
      <trkpt lat="43.5059" lon="6.47986">
        <ele>187.4</ele>
        <time>2015-03-28T15:50:09Z</time>
      </trkpt>
      <trkpt lat="43.50585" lon="6.47996">
        <ele>187.4</ele>
        <time>2015-03-28T15:50:15Z</time>
      </trkpt>
      <trkpt lat="43.5058" lon="6.48006">
        <ele>187.4</ele>
        <time>2015-03-28T15:50:22Z</time>
      </trkpt>
      <trkpt lat="43.50577" lon="6.48016">
        <ele>187</ele>
        <time>2015-03-28T15:50:30Z</time>
      </trkpt>
      <trkpt lat="43.50575" lon="6.48028">
        <ele>187.4</ele>
        <time>2015-03-28T15:50:40Z</time>
      </trkpt>
      <trkpt lat="43.50571" lon="6.48038">
        <ele>187.1</ele>
        <time>2015-03-28T15:50:49Z</time>
      </trkpt>
      <trkpt lat="43.50568" lon="6.48049">
        <ele>187.4</ele>
        <time>2015-03-28T15:50:58Z</time>
      </trkpt>
      <trkpt lat="43.50567" lon="6.48051">
        <ele>187.5</ele>
        <time>2015-03-28T15:50:59Z</time>
      </trkpt>
      <trkpt lat="43.50565" lon="6.48072">
        <ele>188.1</ele>
        <time>2015-03-28T15:51:16Z</time>
      </trkpt>
      <trkpt lat="43.50564" lon="6.48084">
        <ele>187.3</ele>
        <time>2015-03-28T15:51:25Z</time>
      </trkpt>
      <trkpt lat="43.50562" lon="6.48096">
        <ele>187.2</ele>
        <time>2015-03-28T15:51:35Z</time>
      </trkpt>
      <trkpt lat="43.50557" lon="6.48104">
        <ele>187.5</ele>
        <time>2015-03-28T15:51:41Z</time>
      </trkpt>
      <trkpt lat="43.50552" lon="6.48113">
        <ele>187.4</ele>
        <time>2015-03-28T15:51:46Z</time>
      </trkpt>
      <trkpt lat="43.50547" lon="6.48122">
        <ele>187.7</ele>
        <time>2015-03-28T15:51:51Z</time>
      </trkpt>
      <trkpt lat="43.50541" lon="6.48129">
        <ele>187.5</ele>
        <time>2015-03-28T15:51:55Z</time>
      </trkpt>
      <trkpt lat="43.50534" lon="6.48137">
        <ele>186.9</ele>
        <time>2015-03-28T15:51:59Z</time>
      </trkpt>
      <trkpt lat="43.50533" lon="6.48138">
        <ele>187</ele>
        <time>2015-03-28T15:52:00Z</time>
      </trkpt>
      <trkpt lat="43.50523" lon="6.4815">
        <ele>187.2</ele>
        <time>2015-03-28T15:52:07Z</time>
      </trkpt>
      <trkpt lat="43.50518" lon="6.48158">
        <ele>187.4</ele>
        <time>2015-03-28T15:52:12Z</time>
      </trkpt>
      <trkpt lat="43.50513" lon="6.48164">
        <ele>187.1</ele>
        <time>2015-03-28T15:52:15Z</time>
      </trkpt>
      <trkpt lat="43.50506" lon="6.48172">
        <ele>186.8</ele>
        <time>2015-03-28T15:52:19Z</time>
      </trkpt>
      <trkpt lat="43.50501" lon="6.48181">
        <ele>185.9</ele>
        <time>2015-03-28T15:52:25Z</time>
      </trkpt>
      <trkpt lat="43.50496" lon="6.48192">
        <ele>187.1</ele>
        <time>2015-03-28T15:52:33Z</time>
      </trkpt>
      <trkpt lat="43.50492" lon="6.48201">
        <ele>186.6</ele>
        <time>2015-03-28T15:52:42Z</time>
      </trkpt>
      <trkpt lat="43.50491" lon="6.48213">
        <ele>186.4</ele>
        <time>2015-03-28T15:52:50Z</time>
      </trkpt>
      <trkpt lat="43.50489" lon="6.48224">
        <ele>186.6</ele>
        <time>2015-03-28T15:52:58Z</time>
      </trkpt>
      <trkpt lat="43.50483" lon="6.48234">
        <ele>187.9</ele>
        <time>2015-03-28T15:53:08Z</time>
      </trkpt>
      <trkpt lat="43.50483" lon="6.48235">
        <ele>187.4</ele>
        <time>2015-03-28T15:53:09Z</time>
      </trkpt>
      <trkpt lat="43.50475" lon="6.48253">
        <ele>186.3</ele>
        <time>2015-03-28T15:53:28Z</time>
      </trkpt>
      <trkpt lat="43.5047" lon="6.48264">
        <ele>186.9</ele>
        <time>2015-03-28T15:53:38Z</time>
      </trkpt>
      <trkpt lat="43.50465" lon="6.48274">
        <ele>186.1</ele>
        <time>2015-03-28T15:53:48Z</time>
      </trkpt>
      <trkpt lat="43.50458" lon="6.48277">
        <ele>187</ele>
        <time>2015-03-28T15:53:53Z</time>
      </trkpt>
      <trkpt lat="43.50449" lon="6.48279">
        <ele>186.8</ele>
        <time>2015-03-28T15:53:58Z</time>
      </trkpt>
      <trkpt lat="43.50443" lon="6.48287">
        <ele>186.4</ele>
        <time>2015-03-28T15:54:14Z</time>
      </trkpt>
      <trkpt lat="43.50442" lon="6.48288">
        <ele>185.9</ele>
        <time>2015-03-28T15:54:15Z</time>
      </trkpt>
      <trkpt lat="43.50429" lon="6.48294">
        <ele>186.5</ele>
        <time>2015-03-28T15:54:23Z</time>
      </trkpt>
      <trkpt lat="43.50421" lon="6.48297">
        <ele>186</ele>
        <time>2015-03-28T15:54:31Z</time>
      </trkpt>
      <trkpt lat="43.50413" lon="6.48301">
        <ele>186.1</ele>
        <time>2015-03-28T15:54:39Z</time>
      </trkpt>
      <trkpt lat="43.50404" lon="6.48305">
        <ele>185.9</ele>
        <time>2015-03-28T15:54:47Z</time>
      </trkpt>
      <trkpt lat="43.50397" lon="6.48311">
        <ele>185.5</ele>
        <time>2015-03-28T15:55:00Z</time>
      </trkpt>
      <trkpt lat="43.50393" lon="6.48322">
        <ele>185.6</ele>
        <time>2015-03-28T15:55:17Z</time>
      </trkpt>
      <trkpt lat="43.50394" lon="6.48324">
        <ele>185.5</ele>
        <time>2015-03-28T15:55:18Z</time>
      </trkpt>
      <trkpt lat="43.50407" lon="6.48336">
        <ele>185.1</ele>
        <time>2015-03-28T15:55:33Z</time>
      </trkpt>
      <trkpt lat="43.50416" lon="6.48338">
        <ele>185.1</ele>
        <time>2015-03-28T15:55:42Z</time>
      </trkpt>
      <trkpt lat="43.50424" lon="6.4834">
        <ele>186</ele>
        <time>2015-03-28T15:55:52Z</time>
      </trkpt>
      <trkpt lat="43.50432" lon="6.48335">
        <ele>183.2</ele>
        <time>2015-03-28T15:56:38Z</time>
      </trkpt>
      <trkpt lat="43.50433" lon="6.48335">
        <ele>183.3</ele>
        <time>2015-03-28T15:56:39Z</time>
      </trkpt>
    </trkseg>
  </trk>
</gpx>